<?xml version='1.0' encoding='UTF-8'?>
<gpx version="1.1" creator="https://www.komoot.de" xmlns="http://www.topografix.com/GPX/1/1" xmlns:xsi="http://www.w3.org/2001/XMLSchema-instance" xsi:schemaLocation="http://www.topografix.com/GPX/1/1 http://www.topografix.com/GPX/1/1/gpx.xsd">
  <metadata>
    <name>46_580TuellingerAugst</name>
    <author>
      <link href="https://www.komoot.de">
        <text>komoot</text>
        <type>text/html</type>
      </link>
    </author>
  </metadata>
  <trk>
    <name>46_580TuellingerAugst</name>
    <trkseg>
      <trkpt lat="47.541360" lon="7.870832">
        <ele>339.191022</ele>
        <time>2021-11-07T15:12:01.203Z</time>
      </trkpt>
      <trkpt lat="47.541410" lon="7.870791">
        <ele>339.191022</ele>
        <time>2021-11-07T15:12:02.069Z</time>
      </trkpt>
      <trkpt lat="47.541576" lon="7.870664">
        <ele>339.191022</ele>
        <time>2021-11-07T15:12:04.508Z</time>
      </trkpt>
      <trkpt lat="47.541550" lon="7.870601">
        <ele>339.191022</ele>
        <time>2021-11-07T15:12:05.319Z</time>
      </trkpt>
      <trkpt lat="47.541521" lon="7.870517">
        <ele>339.191022</ele>
        <time>2021-11-07T15:12:06.376Z</time>
      </trkpt>
      <trkpt lat="47.541606" lon="7.870424">
        <ele>339.191022</ele>
        <time>2021-11-07T15:12:08.004Z</time>
      </trkpt>
      <trkpt lat="47.541910" lon="7.870106">
        <ele>339.191022</ele>
        <time>2021-11-07T15:12:13.666Z</time>
      </trkpt>
      <trkpt lat="47.542014" lon="7.870126">
        <ele>339.151033</ele>
        <time>2021-11-07T15:12:15.137Z</time>
      </trkpt>
      <trkpt lat="47.542118" lon="7.870135">
        <ele>339.049156</ele>
        <time>2021-11-07T15:12:16.879Z</time>
      </trkpt>
      <trkpt lat="47.542181" lon="7.870131">
        <ele>338.987491</ele>
        <time>2021-11-07T15:12:17.748Z</time>
      </trkpt>
      <trkpt lat="47.542317" lon="7.870012">
        <ele>338.833026</ele>
        <time>2021-11-07T15:12:19.857Z</time>
      </trkpt>
      <trkpt lat="47.542348" lon="7.869983">
        <ele>338.797172</ele>
        <time>2021-11-07T15:12:20.296Z</time>
      </trkpt>
      <trkpt lat="47.542329" lon="7.869820">
        <ele>338.687977</ele>
        <time>2021-11-07T15:12:22.081Z</time>
      </trkpt>
      <trkpt lat="47.542372" lon="7.869746">
        <ele>338.623521</ele>
        <time>2021-11-07T15:12:22.889Z</time>
      </trkpt>
      <trkpt lat="47.542657" lon="7.869354">
        <ele>338.243204</ele>
        <time>2021-11-07T15:12:27.688Z</time>
      </trkpt>
      <trkpt lat="47.542696" lon="7.869257">
        <ele>338.168673</ele>
        <time>2021-11-07T15:12:28.627Z</time>
      </trkpt>
      <trkpt lat="47.542722" lon="7.869201">
        <ele>338.123806</ele>
        <time>2021-11-07T15:12:29.222Z</time>
      </trkpt>
      <trkpt lat="47.543049" lon="7.868759">
        <ele>337.690917</ele>
        <time>2021-11-07T15:12:34.136Z</time>
      </trkpt>
      <trkpt lat="47.543105" lon="7.868711">
        <ele>337.627647</ele>
        <time>2021-11-07T15:12:34.872Z</time>
      </trkpt>
      <trkpt lat="47.543201" lon="7.868657">
        <ele>337.527227</ele>
        <time>2021-11-07T15:12:35.949Z</time>
      </trkpt>
      <trkpt lat="47.543657" lon="7.868359">
        <ele>336.909821</ele>
        <time>2021-11-07T15:12:41.749Z</time>
      </trkpt>
      <trkpt lat="47.543801" lon="7.868269">
        <ele>336.706324</ele>
        <time>2021-11-07T15:12:44.224Z</time>
      </trkpt>
      <trkpt lat="47.544017" lon="7.868122">
        <ele>336.396825</ele>
        <time>2021-11-07T15:12:48.341Z</time>
      </trkpt>
      <trkpt lat="47.544214" lon="7.867988">
        <ele>336.114577</ele>
        <time>2021-11-07T15:12:51.860Z</time>
      </trkpt>
      <trkpt lat="47.544246" lon="7.867967">
        <ele>336.069006</ele>
        <time>2021-11-07T15:12:52.459Z</time>
      </trkpt>
      <trkpt lat="47.544410" lon="7.867825">
        <ele>335.821674</ele>
        <time>2021-11-07T15:12:55.713Z</time>
      </trkpt>
      <trkpt lat="47.544469" lon="7.867776">
        <ele>335.733605</ele>
        <time>2021-11-07T15:12:56.733Z</time>
      </trkpt>
      <trkpt lat="47.544568" lon="7.867693">
        <ele>335.585492</ele>
        <time>2021-11-07T15:12:58.663Z</time>
      </trkpt>
      <trkpt lat="47.545003" lon="7.867278">
        <ele>335.174901</ele>
        <time>2021-11-07T15:13:07.513Z</time>
      </trkpt>
      <trkpt lat="47.545160" lon="7.866985">
        <ele>335.331059</ele>
        <time>2021-11-07T15:13:12.165Z</time>
      </trkpt>
      <trkpt lat="47.545240" lon="7.866887">
        <ele>335.395254</ele>
        <time>2021-11-07T15:13:14.436Z</time>
      </trkpt>
      <trkpt lat="47.546096" lon="7.866147">
        <ele>336.008143</ele>
        <time>2021-11-07T15:13:39.486Z</time>
      </trkpt>
      <trkpt lat="47.546327" lon="7.865959">
        <ele>336.171131</ele>
        <time>2021-11-07T15:13:45.906Z</time>
      </trkpt>
      <trkpt lat="47.546510" lon="7.865766">
        <ele>336.224873</ele>
        <time>2021-11-07T15:13:52.292Z</time>
      </trkpt>
      <trkpt lat="47.546819" lon="7.865489">
        <ele>336.271373</ele>
        <time>2021-11-07T15:14:00.446Z</time>
      </trkpt>
      <trkpt lat="47.546889" lon="7.865225">
        <ele>336.296022</ele>
        <time>2021-11-07T15:14:04.232Z</time>
      </trkpt>
      <trkpt lat="47.546894" lon="7.864837">
        <ele>336.329748</ele>
        <time>2021-11-07T15:14:09.408Z</time>
      </trkpt>
      <trkpt lat="47.546885" lon="7.864500">
        <ele>336.359057</ele>
        <time>2021-11-07T15:14:15.049Z</time>
      </trkpt>
      <trkpt lat="47.546974" lon="7.864423">
        <ele>336.372327</ele>
        <time>2021-11-07T15:14:16.636Z</time>
      </trkpt>
      <trkpt lat="47.547320" lon="7.863864">
        <ele>336.382926</ele>
        <time>2021-11-07T15:14:26.561Z</time>
      </trkpt>
      <trkpt lat="47.547568" lon="7.863151">
        <ele>335.531565</ele>
        <time>2021-11-07T15:14:35.574Z</time>
      </trkpt>
      <trkpt lat="47.547930" lon="7.861711">
        <ele>333.900573</ele>
        <time>2021-11-07T15:14:51.948Z</time>
      </trkpt>
      <trkpt lat="47.548049" lon="7.860929">
        <ele>333.171430</ele>
        <time>2021-11-07T15:15:00.648Z</time>
      </trkpt>
      <trkpt lat="47.548334" lon="7.859801">
        <ele>332.172907</ele>
        <time>2021-11-07T15:15:14.129Z</time>
      </trkpt>
      <trkpt lat="47.548611" lon="7.858381">
        <ele>331.328886</ele>
        <time>2021-11-07T15:15:32.086Z</time>
      </trkpt>
      <trkpt lat="47.548686" lon="7.857973">
        <ele>331.276117</ele>
        <time>2021-11-07T15:15:37.475Z</time>
      </trkpt>
      <trkpt lat="47.548701" lon="7.857893">
        <ele>331.265756</ele>
        <time>2021-11-07T15:15:38.595Z</time>
      </trkpt>
      <trkpt lat="47.548743" lon="7.857692">
        <ele>331.239499</ele>
        <time>2021-11-07T15:15:41.369Z</time>
      </trkpt>
      <trkpt lat="47.548887" lon="7.857308">
        <ele>331.184680</ele>
        <time>2021-11-07T15:15:47.403Z</time>
      </trkpt>
      <trkpt lat="47.549362" lon="7.855774">
        <ele>330.866074</ele>
        <time>2021-11-07T15:16:11.448Z</time>
      </trkpt>
      <trkpt lat="47.549566" lon="7.855225">
        <ele>330.693875</ele>
        <time>2021-11-07T15:16:20.066Z</time>
      </trkpt>
      <trkpt lat="47.549883" lon="7.854434">
        <ele>330.441108</ele>
        <time>2021-11-07T15:16:31.519Z</time>
      </trkpt>
      <trkpt lat="47.550221" lon="7.853833">
        <ele>329.686880</ele>
        <time>2021-11-07T15:16:37.913Z</time>
      </trkpt>
      <trkpt lat="47.551516" lon="7.851950">
        <ele>324.964380</ele>
        <time>2021-11-07T15:16:56.710Z</time>
      </trkpt>
      <trkpt lat="47.551660" lon="7.851725">
        <ele>324.284278</ele>
        <time>2021-11-07T15:16:58.741Z</time>
      </trkpt>
      <trkpt lat="47.551830" lon="7.851603">
        <ele>323.670426</ele>
        <time>2021-11-07T15:17:00.662Z</time>
      </trkpt>
      <trkpt lat="47.551925" lon="7.851845">
        <ele>323.056383</ele>
        <time>2021-11-07T15:17:02.506Z</time>
      </trkpt>
      <trkpt lat="47.552042" lon="7.852007">
        <ele>322.535978</ele>
        <time>2021-11-07T15:17:04.151Z</time>
      </trkpt>
      <trkpt lat="47.552097" lon="7.852063">
        <ele>322.319107</ele>
        <time>2021-11-07T15:17:04.783Z</time>
      </trkpt>
      <trkpt lat="47.552272" lon="7.852167">
        <ele>321.706357</ele>
        <time>2021-11-07T15:17:06.689Z</time>
      </trkpt>
      <trkpt lat="47.552449" lon="7.852231">
        <ele>321.114269</ele>
        <time>2021-11-07T15:17:08.489Z</time>
      </trkpt>
      <trkpt lat="47.552678" lon="7.851709">
        <ele>319.842598</ele>
        <time>2021-11-07T15:17:12.792Z</time>
      </trkpt>
      <trkpt lat="47.552876" lon="7.851300">
        <ele>319.130498</ele>
        <time>2021-11-07T15:17:16.336Z</time>
      </trkpt>
      <trkpt lat="47.553283" lon="7.850634">
        <ele>317.859410</ele>
        <time>2021-11-07T15:17:23.001Z</time>
      </trkpt>
      <trkpt lat="47.553344" lon="7.850525">
        <ele>317.659084</ele>
        <time>2021-11-07T15:17:24.082Z</time>
      </trkpt>
      <trkpt lat="47.553380" lon="7.850453">
        <ele>317.532315</ele>
        <time>2021-11-07T15:17:24.779Z</time>
      </trkpt>
      <trkpt lat="47.553537" lon="7.849904">
        <ele>316.688774</ele>
        <time>2021-11-07T15:17:29.263Z</time>
      </trkpt>
      <trkpt lat="47.553605" lon="7.849629">
        <ele>316.274431</ele>
        <time>2021-11-07T15:17:31.533Z</time>
      </trkpt>
      <trkpt lat="47.553725" lon="7.849291">
        <ele>315.895996</ele>
        <time>2021-11-07T15:17:34.457Z</time>
      </trkpt>
      <trkpt lat="47.554055" lon="7.848586">
        <ele>315.068462</ele>
        <time>2021-11-07T15:17:41.380Z</time>
      </trkpt>
      <trkpt lat="47.554102" lon="7.848498">
        <ele>314.960221</ele>
        <time>2021-11-07T15:17:42.234Z</time>
      </trkpt>
      <trkpt lat="47.554209" lon="7.848300">
        <ele>314.715566</ele>
        <time>2021-11-07T15:17:44.329Z</time>
      </trkpt>
      <trkpt lat="47.554269" lon="7.848188">
        <ele>314.577644</ele>
        <time>2021-11-07T15:17:45.424Z</time>
      </trkpt>
      <trkpt lat="47.554351" lon="7.848049">
        <ele>314.399577</ele>
        <time>2021-11-07T15:17:46.844Z</time>
      </trkpt>
      <trkpt lat="47.554465" lon="7.847858">
        <ele>314.153647</ele>
        <time>2021-11-07T15:17:48.894Z</time>
      </trkpt>
      <trkpt lat="47.554618" lon="7.847626">
        <ele>313.840783</ele>
        <time>2021-11-07T15:17:51.375Z</time>
      </trkpt>
      <trkpt lat="47.554759" lon="7.847388">
        <ele>313.550801</ele>
        <time>2021-11-07T15:17:53.810Z</time>
      </trkpt>
      <trkpt lat="47.554892" lon="7.847148">
        <ele>313.285117</ele>
        <time>2021-11-07T15:17:56.233Z</time>
      </trkpt>
      <trkpt lat="47.554987" lon="7.846934">
        <ele>313.065973</ele>
        <time>2021-11-07T15:17:58.209Z</time>
      </trkpt>
      <trkpt lat="47.554995" lon="7.846915">
        <ele>313.046814</ele>
        <time>2021-11-07T15:17:58.385Z</time>
      </trkpt>
      <trkpt lat="47.555068" lon="7.846672">
        <ele>312.819251</ele>
        <time>2021-11-07T15:18:00.452Z</time>
      </trkpt>
      <trkpt lat="47.555199" lon="7.846687">
        <ele>312.652688</ele>
        <time>2021-11-07T15:18:01.939Z</time>
      </trkpt>
      <trkpt lat="47.555727" lon="7.846715">
        <ele>311.982919</ele>
        <time>2021-11-07T15:18:08.396Z</time>
      </trkpt>
      <trkpt lat="47.555855" lon="7.846815">
        <ele>311.799482</ele>
        <time>2021-11-07T15:18:10.059Z</time>
      </trkpt>
      <trkpt lat="47.555892" lon="7.846856">
        <ele>311.740913</ele>
        <time>2021-11-07T15:18:10.616Z</time>
      </trkpt>
      <trkpt lat="47.555966" lon="7.846932">
        <ele>311.626774</ele>
        <time>2021-11-07T15:18:11.765Z</time>
      </trkpt>
      <trkpt lat="47.555990" lon="7.846965">
        <ele>311.585268</ele>
        <time>2021-11-07T15:18:12.197Z</time>
      </trkpt>
      <trkpt lat="47.556060" lon="7.846859">
        <ele>311.458388</ele>
        <time>2021-11-07T15:18:13.391Z</time>
      </trkpt>
      <trkpt lat="47.556636" lon="7.845928">
        <ele>310.791872</ele>
        <time>2021-11-07T15:18:23.777Z</time>
      </trkpt>
      <trkpt lat="47.557134" lon="7.845095">
        <ele>310.228435</ele>
        <time>2021-11-07T15:18:33.597Z</time>
      </trkpt>
      <trkpt lat="47.557282" lon="7.844832">
        <ele>310.055059</ele>
        <time>2021-11-07T15:18:36.736Z</time>
      </trkpt>
      <trkpt lat="47.557560" lon="7.844433">
        <ele>309.999286</ele>
        <time>2021-11-07T15:18:41.911Z</time>
      </trkpt>
      <trkpt lat="47.557715" lon="7.843940">
        <ele>309.956249</ele>
        <time>2021-11-07T15:18:46.916Z</time>
      </trkpt>
      <trkpt lat="47.557759" lon="7.843839">
        <ele>309.946736</ele>
        <time>2021-11-07T15:18:48.096Z</time>
      </trkpt>
      <trkpt lat="47.557846" lon="7.843756">
        <ele>309.934603</ele>
        <time>2021-11-07T15:18:49.443Z</time>
      </trkpt>
      <trkpt lat="47.557967" lon="7.843683">
        <ele>309.919285</ele>
        <time>2021-11-07T15:18:51.473Z</time>
      </trkpt>
      <trkpt lat="47.557967" lon="7.843683">
        <ele>309.919285</ele>
        <time>2021-11-07T15:18:51.479Z</time>
      </trkpt>
      <trkpt lat="47.557967" lon="7.843683">
        <ele>309.919285</ele>
        <time>2021-11-07T15:18:51.552Z</time>
      </trkpt>
      <trkpt lat="47.558136" lon="7.843582">
        <ele>309.897917</ele>
        <time>2021-11-07T15:18:54.239Z</time>
      </trkpt>
      <trkpt lat="47.558405" lon="7.843371">
        <ele>309.862229</ele>
        <time>2021-11-07T15:18:59.104Z</time>
      </trkpt>
      <trkpt lat="47.558471" lon="7.843365">
        <ele>309.854475</ele>
        <time>2021-11-07T15:18:59.955Z</time>
      </trkpt>
      <trkpt lat="47.558555" lon="7.843392">
        <ele>309.844397</ele>
        <time>2021-11-07T15:19:01.237Z</time>
      </trkpt>
      <trkpt lat="47.558884" lon="7.843836">
        <ele>309.862696</ele>
        <time>2021-11-07T15:19:08.516Z</time>
      </trkpt>
      <trkpt lat="47.559060" lon="7.844197">
        <ele>309.890141</ele>
        <time>2021-11-07T15:19:13.340Z</time>
      </trkpt>
      <trkpt lat="47.559109" lon="7.844229">
        <ele>309.895031</ele>
        <time>2021-11-07T15:19:14.294Z</time>
      </trkpt>
      <trkpt lat="47.559158" lon="7.844233">
        <ele>309.899513</ele>
        <time>2021-11-07T15:19:15.337Z</time>
      </trkpt>
      <trkpt lat="47.559583" lon="7.843813">
        <ele>309.946162</ele>
        <time>2021-11-07T15:19:23.317Z</time>
      </trkpt>
      <trkpt lat="47.559847" lon="7.843604">
        <ele>309.973495</ele>
        <time>2021-11-07T15:19:27.716Z</time>
      </trkpt>
      <trkpt lat="47.560139" lon="7.843433">
        <ele>309.931865</ele>
        <time>2021-11-07T15:19:31.946Z</time>
      </trkpt>
      <trkpt lat="47.560209" lon="7.843393">
        <ele>309.859454</ele>
        <time>2021-11-07T15:19:32.897Z</time>
      </trkpt>
      <trkpt lat="47.560338" lon="7.843341">
        <ele>309.730423</ele>
        <time>2021-11-07T15:19:34.563Z</time>
      </trkpt>
      <trkpt lat="47.560430" lon="7.843341">
        <ele>309.641627</ele>
        <time>2021-11-07T15:19:36.059Z</time>
      </trkpt>
      <trkpt lat="47.560430" lon="7.843341">
        <ele>309.641627</ele>
        <time>2021-11-07T15:19:36.088Z</time>
      </trkpt>
      <trkpt lat="47.560515" lon="7.843379">
        <ele>309.555935</ele>
        <time>2021-11-07T15:19:37.122Z</time>
      </trkpt>
      <trkpt lat="47.560812" lon="7.843560">
        <ele>309.245985</ele>
        <time>2021-11-07T15:19:41.181Z</time>
      </trkpt>
      <trkpt lat="47.560934" lon="7.843550">
        <ele>309.128054</ele>
        <time>2021-11-07T15:19:42.704Z</time>
      </trkpt>
      <trkpt lat="47.561038" lon="7.843502">
        <ele>309.022920</ele>
        <time>2021-11-07T15:19:43.990Z</time>
      </trkpt>
      <trkpt lat="47.561434" lon="7.843181">
        <ele>308.587268</ele>
        <time>2021-11-07T15:19:49.433Z</time>
      </trkpt>
      <trkpt lat="47.561498" lon="7.843130">
        <ele>308.517133</ele>
        <time>2021-11-07T15:19:50.197Z</time>
      </trkpt>
      <trkpt lat="47.562179" lon="7.842500">
        <ele>307.596259</ele>
        <time>2021-11-07T15:19:59.454Z</time>
      </trkpt>
      <trkpt lat="47.562300" lon="7.842326">
        <ele>307.387634</ele>
        <time>2021-11-07T15:20:01.404Z</time>
      </trkpt>
      <trkpt lat="47.562385" lon="7.842183">
        <ele>307.228516</ele>
        <time>2021-11-07T15:20:02.817Z</time>
      </trkpt>
      <trkpt lat="47.562440" lon="7.842083">
        <ele>307.120797</ele>
        <time>2021-11-07T15:20:03.931Z</time>
      </trkpt>
      <trkpt lat="47.562574" lon="7.841873">
        <ele>306.879473</ele>
        <time>2021-11-07T15:20:06.326Z</time>
      </trkpt>
      <trkpt lat="47.562904" lon="7.841632">
        <ele>306.424249</ele>
        <time>2021-11-07T15:20:10.815Z</time>
      </trkpt>
      <trkpt lat="47.562965" lon="7.841597">
        <ele>306.343310</ele>
        <time>2021-11-07T15:20:11.607Z</time>
      </trkpt>
      <trkpt lat="47.563016" lon="7.841568">
        <ele>306.275717</ele>
        <time>2021-11-07T15:20:12.308Z</time>
      </trkpt>
      <trkpt lat="47.563300" lon="7.841391">
        <ele>305.914941</ele>
        <time>2021-11-07T15:20:16.046Z</time>
      </trkpt>
      <trkpt lat="47.563483" lon="7.841269">
        <ele>305.702913</ele>
        <time>2021-11-07T15:20:18.600Z</time>
      </trkpt>
      <trkpt lat="47.563659" lon="7.841150">
        <ele>305.498505</ele>
        <time>2021-11-07T15:20:20.930Z</time>
      </trkpt>
      <trkpt lat="47.563805" lon="7.841046">
        <ele>305.327341</ele>
        <time>2021-11-07T15:20:22.989Z</time>
      </trkpt>
      <trkpt lat="47.563941" lon="7.840948">
        <ele>305.167553</ele>
        <time>2021-11-07T15:20:24.844Z</time>
      </trkpt>
      <trkpt lat="47.563986" lon="7.840916">
        <ele>305.114814</ele>
        <time>2021-11-07T15:20:25.464Z</time>
      </trkpt>
      <trkpt lat="47.564094" lon="7.840838">
        <ele>304.987868</ele>
        <time>2021-11-07T15:20:26.931Z</time>
      </trkpt>
      <trkpt lat="47.564463" lon="7.840580">
        <ele>304.556757</ele>
        <time>2021-11-07T15:20:31.922Z</time>
      </trkpt>
      <trkpt lat="47.564534" lon="7.840532">
        <ele>304.474299</ele>
        <time>2021-11-07T15:20:32.829Z</time>
      </trkpt>
      <trkpt lat="47.564558" lon="7.840516">
        <ele>304.446492</ele>
        <time>2021-11-07T15:20:33.153Z</time>
      </trkpt>
      <trkpt lat="47.564936" lon="7.840261">
        <ele>303.996490</ele>
        <time>2021-11-07T15:20:38.054Z</time>
      </trkpt>
      <trkpt lat="47.565057" lon="7.840213">
        <ele>303.852443</ele>
        <time>2021-11-07T15:20:39.468Z</time>
      </trkpt>
      <trkpt lat="47.565168" lon="7.840179">
        <ele>303.722095</ele>
        <time>2021-11-07T15:20:40.809Z</time>
      </trkpt>
      <trkpt lat="47.565233" lon="7.840176">
        <ele>303.647310</ele>
        <time>2021-11-07T15:20:41.545Z</time>
      </trkpt>
      <trkpt lat="47.565343" lon="7.840185">
        <ele>303.520618</ele>
        <time>2021-11-07T15:20:42.805Z</time>
      </trkpt>
      <trkpt lat="47.565906" lon="7.840272">
        <ele>302.869661</ele>
        <time>2021-11-07T15:20:49.471Z</time>
      </trkpt>
      <trkpt lat="47.566081" lon="7.840309">
        <ele>302.666375</ele>
        <time>2021-11-07T15:20:51.586Z</time>
      </trkpt>
      <trkpt lat="47.566142" lon="7.840322">
        <ele>302.595504</ele>
        <time>2021-11-07T15:20:52.321Z</time>
      </trkpt>
      <trkpt lat="47.566221" lon="7.840340">
        <ele>302.503587</ele>
        <time>2021-11-07T15:20:53.461Z</time>
      </trkpt>
      <trkpt lat="47.566350" lon="7.840350">
        <ele>302.355035</ele>
        <time>2021-11-07T15:20:55.076Z</time>
      </trkpt>
      <trkpt lat="47.566450" lon="7.840326">
        <ele>302.238538</ele>
        <time>2021-11-07T15:20:56.326Z</time>
      </trkpt>
      <trkpt lat="47.566515" lon="7.840312">
        <ele>302.163003</ele>
        <time>2021-11-07T15:20:57.122Z</time>
      </trkpt>
      <trkpt lat="47.566592" lon="7.840279">
        <ele>302.070825</ele>
        <time>2021-11-07T15:20:58.236Z</time>
      </trkpt>
      <trkpt lat="47.566826" lon="7.840179">
        <ele>301.885547</ele>
        <time>2021-11-07T15:21:01.186Z</time>
      </trkpt>
      <trkpt lat="47.567111" lon="7.839998">
        <ele>301.651968</ele>
        <time>2021-11-07T15:21:05.117Z</time>
      </trkpt>
      <trkpt lat="47.567406" lon="7.839778">
        <ele>301.403188</ele>
        <time>2021-11-07T15:21:09.276Z</time>
      </trkpt>
      <trkpt lat="47.567481" lon="7.839664">
        <ele>301.322258</ele>
        <time>2021-11-07T15:21:10.571Z</time>
      </trkpt>
      <trkpt lat="47.567510" lon="7.839548">
        <ele>301.259379</ele>
        <time>2021-11-07T15:21:11.727Z</time>
      </trkpt>
      <trkpt lat="47.567530" lon="7.839459">
        <ele>301.211699</ele>
        <time>2021-11-07T15:21:12.534Z</time>
      </trkpt>
      <trkpt lat="47.567564" lon="7.839283">
        <ele>301.118646</ele>
        <time>2021-11-07T15:21:14.098Z</time>
      </trkpt>
      <trkpt lat="47.567626" lon="7.839064">
        <ele>300.997930</ele>
        <time>2021-11-07T15:21:16.212Z</time>
      </trkpt>
      <trkpt lat="47.567634" lon="7.839037">
        <ele>300.982942</ele>
        <time>2021-11-07T15:21:16.440Z</time>
      </trkpt>
      <trkpt lat="47.567823" lon="7.838648">
        <ele>300.739291</ele>
        <time>2021-11-07T15:21:20.747Z</time>
      </trkpt>
      <trkpt lat="47.567846" lon="7.838609">
        <ele>300.712963</ele>
        <time>2021-11-07T15:21:21.171Z</time>
      </trkpt>
      <trkpt lat="47.567936" lon="7.838380">
        <ele>300.507417</ele>
        <time>2021-11-07T15:21:23.527Z</time>
      </trkpt>
      <trkpt lat="47.568042" lon="7.838436">
        <ele>300.377259</ele>
        <time>2021-11-07T15:21:25.616Z</time>
      </trkpt>
      <trkpt lat="47.568160" lon="7.838415">
        <ele>300.239797</ele>
        <time>2021-11-07T15:21:27.762Z</time>
      </trkpt>
      <trkpt lat="47.568420" lon="7.838300">
        <ele>299.925970</ele>
        <time>2021-11-07T15:21:32.550Z</time>
      </trkpt>
      <trkpt lat="47.568988" lon="7.838054">
        <ele>299.241534</ele>
        <time>2021-11-07T15:21:42.374Z</time>
      </trkpt>
      <trkpt lat="47.569310" lon="7.837922">
        <ele>298.855119</ele>
        <time>2021-11-07T15:21:47.881Z</time>
      </trkpt>
      <trkpt lat="47.569522" lon="7.837844">
        <ele>298.598302</ele>
        <time>2021-11-07T15:21:51.473Z</time>
      </trkpt>
      <trkpt lat="47.569665" lon="7.837789">
        <ele>298.401757</ele>
        <time>2021-11-07T15:21:53.910Z</time>
      </trkpt>
      <trkpt lat="47.569814" lon="7.837733">
        <ele>298.197257</ele>
        <time>2021-11-07T15:21:56.447Z</time>
      </trkpt>
      <trkpt lat="47.569907" lon="7.837696">
        <ele>298.069152</ele>
        <time>2021-11-07T15:21:58.022Z</time>
      </trkpt>
      <trkpt lat="47.570038" lon="7.837643">
        <ele>297.888496</ele>
        <time>2021-11-07T15:22:00.274Z</time>
      </trkpt>
      <trkpt lat="47.570298" lon="7.837528">
        <ele>297.527524</ele>
        <time>2021-11-07T15:22:04.726Z</time>
      </trkpt>
      <trkpt lat="47.570872" lon="7.837307">
        <ele>296.738543</ele>
        <time>2021-11-07T15:22:14.588Z</time>
      </trkpt>
      <trkpt lat="47.570985" lon="7.837265">
        <ele>296.583556</ele>
        <time>2021-11-07T15:22:16.515Z</time>
      </trkpt>
      <trkpt lat="47.571254" lon="7.837161">
        <ele>296.226447</ele>
        <time>2021-11-07T15:22:21.228Z</time>
      </trkpt>
      <trkpt lat="47.571771" lon="7.836971">
        <ele>295.899395</ele>
        <time>2021-11-07T15:22:30.734Z</time>
      </trkpt>
      <trkpt lat="47.571871" lon="7.836932">
        <ele>295.835905</ele>
        <time>2021-11-07T15:22:32.670Z</time>
      </trkpt>
      <trkpt lat="47.572139" lon="7.836834">
        <ele>295.666418</ele>
        <time>2021-11-07T15:22:37.866Z</time>
      </trkpt>
      <trkpt lat="47.572296" lon="7.836777">
        <ele>295.567170</ele>
        <time>2021-11-07T15:22:40.944Z</time>
      </trkpt>
      <trkpt lat="47.572760" lon="7.836606">
        <ele>295.273599</ele>
        <time>2021-11-07T15:22:49.962Z</time>
      </trkpt>
      <trkpt lat="47.573348" lon="7.836386">
        <ele>294.997482</ele>
        <time>2021-11-07T15:23:01.116Z</time>
      </trkpt>
      <trkpt lat="47.573815" lon="7.836215">
        <ele>294.824780</ele>
        <time>2021-11-07T15:23:09.928Z</time>
      </trkpt>
      <trkpt lat="47.574158" lon="7.836106">
        <ele>294.698838</ele>
        <time>2021-11-07T15:23:16.499Z</time>
      </trkpt>
      <trkpt lat="47.574568" lon="7.836025">
        <ele>294.550338</ele>
        <time>2021-11-07T15:23:22.190Z</time>
      </trkpt>
      <trkpt lat="47.575033" lon="7.835907">
        <ele>294.664924</ele>
        <time>2021-11-07T15:23:29.195Z</time>
      </trkpt>
      <trkpt lat="47.575959" lon="7.835718">
        <ele>295.225984</ele>
        <time>2021-11-07T15:23:44.812Z</time>
      </trkpt>
      <trkpt lat="47.576219" lon="7.835650">
        <ele>295.384455</ele>
        <time>2021-11-07T15:23:49.969Z</time>
      </trkpt>
      <trkpt lat="47.579073" lon="7.834987">
        <ele>298.479928</ele>
        <time>2021-11-07T15:24:48.806Z</time>
      </trkpt>
      <trkpt lat="47.580667" lon="7.834627">
        <ele>298.509638</ele>
        <time>2021-11-07T15:25:12.655Z</time>
      </trkpt>
      <trkpt lat="47.580816" lon="7.834599">
        <ele>298.364457</ele>
        <time>2021-11-07T15:25:14.752Z</time>
      </trkpt>
      <trkpt lat="47.582828" lon="7.834117">
        <ele>295.034436</ele>
        <time>2021-11-07T15:25:37.799Z</time>
      </trkpt>
      <trkpt lat="47.583163" lon="7.833942">
        <ele>294.203051</ele>
        <time>2021-11-07T15:25:41.628Z</time>
      </trkpt>
      <trkpt lat="47.583327" lon="7.833750">
        <ele>293.713919</ele>
        <time>2021-11-07T15:25:43.787Z</time>
      </trkpt>
      <trkpt lat="47.583401" lon="7.833658">
        <ele>293.487866</ele>
        <time>2021-11-07T15:25:44.718Z</time>
      </trkpt>
      <trkpt lat="47.583523" lon="7.833509">
        <ele>293.098899</ele>
        <time>2021-11-07T15:25:46.395Z</time>
      </trkpt>
      <trkpt lat="47.583696" lon="7.833171">
        <ele>291.878729</ele>
        <time>2021-11-07T15:25:49.192Z</time>
      </trkpt>
      <trkpt lat="47.583849" lon="7.832883">
        <ele>290.824478</ele>
        <time>2021-11-07T15:25:51.520Z</time>
      </trkpt>
      <trkpt lat="47.584029" lon="7.832543">
        <ele>289.581525</ele>
        <time>2021-11-07T15:25:54.273Z</time>
      </trkpt>
      <trkpt lat="47.584156" lon="7.832334">
        <ele>288.772568</ele>
        <time>2021-11-07T15:25:56.030Z</time>
      </trkpt>
      <trkpt lat="47.584156" lon="7.832334">
        <ele>288.772568</ele>
        <time>2021-11-07T15:25:56.036Z</time>
      </trkpt>
      <trkpt lat="47.584156" lon="7.832334">
        <ele>288.772568</ele>
        <time>2021-11-07T15:25:56.086Z</time>
      </trkpt>
      <trkpt lat="47.584367" lon="7.832247">
        <ele>287.838838</ele>
        <time>2021-11-07T15:25:58.164Z</time>
      </trkpt>
      <trkpt lat="47.584717" lon="7.832264">
        <ele>286.345830</ele>
        <time>2021-11-07T15:26:01.563Z</time>
      </trkpt>
      <trkpt lat="47.584768" lon="7.832291">
        <ele>286.114947</ele>
        <time>2021-11-07T15:26:02.068Z</time>
      </trkpt>
      <trkpt lat="47.585027" lon="7.832425">
        <ele>285.130133</ele>
        <time>2021-11-07T15:26:04.845Z</time>
      </trkpt>
      <trkpt lat="47.585195" lon="7.832588">
        <ele>284.574087</ele>
        <time>2021-11-07T15:26:06.858Z</time>
      </trkpt>
      <trkpt lat="47.585247" lon="7.832651">
        <ele>284.388106</ele>
        <time>2021-11-07T15:26:07.518Z</time>
      </trkpt>
      <trkpt lat="47.585278" lon="7.832688">
        <ele>284.277888</ele>
        <time>2021-11-07T15:26:07.908Z</time>
      </trkpt>
      <trkpt lat="47.586276" lon="7.833601">
        <ele>281.030135</ele>
        <time>2021-11-07T15:26:19.940Z</time>
      </trkpt>
      <trkpt lat="47.586496" lon="7.833050">
        <ele>280.498322</ele>
        <time>2021-11-07T15:26:25.177Z</time>
      </trkpt>
      <trkpt lat="47.587848" lon="7.834235">
        <ele>280.566141</ele>
        <time>2021-11-07T15:26:49.517Z</time>
      </trkpt>
      <trkpt lat="47.587628" lon="7.835942">
        <ele>283.290900</ele>
        <time>2021-11-07T15:27:17.343Z</time>
      </trkpt>
      <trkpt lat="47.587903" lon="7.836007">
        <ele>283.938241</ele>
        <time>2021-11-07T15:27:24.966Z</time>
      </trkpt>
      <trkpt lat="47.588272" lon="7.836090">
        <ele>284.806333</ele>
        <time>2021-11-07T15:27:35.450Z</time>
      </trkpt>
      <trkpt lat="47.589181" lon="7.835983">
        <ele>286.939178</ele>
        <time>2021-11-07T15:28:00.865Z</time>
      </trkpt>
      <trkpt lat="47.589180" lon="7.835807">
        <ele>287.216832</ele>
        <time>2021-11-07T15:28:04.019Z</time>
      </trkpt>
      <trkpt lat="47.589697" lon="7.830187">
        <ele>293.030956</ele>
        <time>2021-11-07T15:29:18.374Z</time>
      </trkpt>
      <trkpt lat="47.589774" lon="7.829352">
        <ele>293.959407</ele>
        <time>2021-11-07T15:29:32.410Z</time>
      </trkpt>
      <trkpt lat="47.589796" lon="7.829217">
        <ele>294.167127</ele>
        <time>2021-11-07T15:29:34.757Z</time>
      </trkpt>
      <trkpt lat="47.589830" lon="7.829093">
        <ele>294.367324</ele>
        <time>2021-11-07T15:29:36.904Z</time>
      </trkpt>
      <trkpt lat="47.589980" lon="7.829068">
        <ele>294.702059</ele>
        <time>2021-11-07T15:29:40.803Z</time>
      </trkpt>
      <trkpt lat="47.590199" lon="7.829063">
        <ele>295.187770</ele>
        <time>2021-11-07T15:29:46.119Z</time>
      </trkpt>
      <trkpt lat="47.590942" lon="7.829014">
        <ele>296.837072</ele>
        <time>2021-11-07T15:30:03.967Z</time>
      </trkpt>
      <trkpt lat="47.590942" lon="7.829014">
        <ele>296.837072</ele>
        <time>2021-11-07T15:30:04.020Z</time>
      </trkpt>
      <trkpt lat="47.590942" lon="7.829014">
        <ele>296.837072</ele>
        <time>2021-11-07T15:30:04.027Z</time>
      </trkpt>
      <trkpt lat="47.590997" lon="7.828435">
        <ele>297.711565</ele>
        <time>2021-11-07T15:30:13.177Z</time>
      </trkpt>
      <trkpt lat="47.591025" lon="7.828158">
        <ele>297.866768</ele>
        <time>2021-11-07T15:30:17.487Z</time>
      </trkpt>
      <trkpt lat="47.591088" lon="7.827507">
        <ele>298.044492</ele>
        <time>2021-11-07T15:30:27.236Z</time>
      </trkpt>
      <trkpt lat="47.591121" lon="7.827210">
        <ele>298.125834</ele>
        <time>2021-11-07T15:30:30.760Z</time>
      </trkpt>
      <trkpt lat="47.591206" lon="7.826325">
        <ele>298.367404</ele>
        <time>2021-11-07T15:30:39.230Z</time>
      </trkpt>
      <trkpt lat="47.591232" lon="7.825464">
        <ele>298.436136</ele>
        <time>2021-11-07T15:30:46.330Z</time>
      </trkpt>
      <trkpt lat="47.591145" lon="7.824128">
        <ele>297.960065</ele>
        <time>2021-11-07T15:30:57.325Z</time>
      </trkpt>
      <trkpt lat="47.591059" lon="7.823571">
        <ele>297.757391</ele>
        <time>2021-11-07T15:31:02.148Z</time>
      </trkpt>
      <trkpt lat="47.591023" lon="7.823436">
        <ele>297.705901</ele>
        <time>2021-11-07T15:31:03.385Z</time>
      </trkpt>
      <trkpt lat="47.590993" lon="7.823343">
        <ele>297.669335</ele>
        <time>2021-11-07T15:31:04.290Z</time>
      </trkpt>
      <trkpt lat="47.590966" lon="7.823273">
        <ele>297.640733</ele>
        <time>2021-11-07T15:31:04.980Z</time>
      </trkpt>
      <trkpt lat="47.590938" lon="7.823202">
        <ele>297.611560</ele>
        <time>2021-11-07T15:31:05.723Z</time>
      </trkpt>
      <trkpt lat="47.590876" lon="7.823017">
        <ele>297.987129</ele>
        <time>2021-11-07T15:31:07.581Z</time>
      </trkpt>
      <trkpt lat="47.590820" lon="7.822776">
        <ele>298.796882</ele>
        <time>2021-11-07T15:31:12.679Z</time>
      </trkpt>
      <trkpt lat="47.590742" lon="7.822297">
        <ele>300.362252</ele>
        <time>2021-11-07T15:31:19.888Z</time>
      </trkpt>
      <trkpt lat="47.590684" lon="7.821940">
        <ele>301.528781</ele>
        <time>2021-11-07T15:31:27.164Z</time>
      </trkpt>
      <trkpt lat="47.590673" lon="7.821142">
        <ele>304.064331</ele>
        <time>2021-11-07T15:31:48.399Z</time>
      </trkpt>
      <trkpt lat="47.590665" lon="7.821069">
        <ele>304.299273</ele>
        <time>2021-11-07T15:31:50.295Z</time>
      </trkpt>
      <trkpt lat="47.590651" lon="7.821006">
        <ele>304.509990</ele>
        <time>2021-11-07T15:31:51.860Z</time>
      </trkpt>
      <trkpt lat="47.590626" lon="7.820946">
        <ele>304.734036</ele>
        <time>2021-11-07T15:31:53.526Z</time>
      </trkpt>
      <trkpt lat="47.590586" lon="7.820883">
        <ele>305.008903</ele>
        <time>2021-11-07T15:31:55.516Z</time>
      </trkpt>
      <trkpt lat="47.590612" lon="7.820777">
        <ele>305.367214</ele>
        <time>2021-11-07T15:31:58.543Z</time>
      </trkpt>
      <trkpt lat="47.590614" lon="7.820708">
        <ele>305.586611</ele>
        <time>2021-11-07T15:32:03.166Z</time>
      </trkpt>
      <trkpt lat="47.590554" lon="7.820052">
        <ele>309.934417</ele>
        <time>2021-11-07T15:32:25.960Z</time>
      </trkpt>
      <trkpt lat="47.590624" lon="7.819732">
        <ele>312.471146</ele>
        <time>2021-11-07T15:32:37.226Z</time>
      </trkpt>
      <trkpt lat="47.591075" lon="7.819121">
        <ele>319.301496</ele>
        <time>2021-11-07T15:33:17.473Z</time>
      </trkpt>
      <trkpt lat="47.591246" lon="7.818566">
        <ele>323.902503</ele>
        <time>2021-11-07T15:33:45.706Z</time>
      </trkpt>
      <trkpt lat="47.591346" lon="7.817303">
        <ele>332.708066</ele>
        <time>2021-11-07T15:34:37.893Z</time>
      </trkpt>
      <trkpt lat="47.591551" lon="7.815659">
        <ele>343.966495</ele>
        <time>2021-11-07T15:35:36.341Z</time>
      </trkpt>
      <trkpt lat="47.591546" lon="7.815266">
        <ele>345.814803</ele>
        <time>2021-11-07T15:35:48.630Z</time>
      </trkpt>
      <trkpt lat="47.591438" lon="7.814076">
        <ele>351.305314</ele>
        <time>2021-11-07T15:36:23.337Z</time>
      </trkpt>
      <trkpt lat="47.591515" lon="7.812852">
        <ele>356.583082</ele>
        <time>2021-11-07T15:36:55.865Z</time>
      </trkpt>
      <trkpt lat="47.591613" lon="7.812338">
        <ele>357.641621</ele>
        <time>2021-11-07T15:37:07.943Z</time>
      </trkpt>
      <trkpt lat="47.591696" lon="7.811913">
        <ele>358.518462</ele>
        <time>2021-11-07T15:37:16.827Z</time>
      </trkpt>
      <trkpt lat="47.591858" lon="7.811405">
        <ele>359.632056</ele>
        <time>2021-11-07T15:37:26.952Z</time>
      </trkpt>
      <trkpt lat="47.591916" lon="7.811092">
        <ele>360.275326</ele>
        <time>2021-11-07T15:37:31.900Z</time>
      </trkpt>
      <trkpt lat="47.591991" lon="7.810188">
        <ele>361.411032</ele>
        <time>2021-11-07T15:37:43.075Z</time>
      </trkpt>
      <trkpt lat="47.591999" lon="7.810096">
        <ele>361.335663</ele>
        <time>2021-11-07T15:37:43.947Z</time>
      </trkpt>
      <trkpt lat="47.592047" lon="7.809389">
        <ele>360.758322</ele>
        <time>2021-11-07T15:37:50.147Z</time>
      </trkpt>
      <trkpt lat="47.592088" lon="7.808946">
        <ele>360.395011</ele>
        <time>2021-11-07T15:37:53.586Z</time>
      </trkpt>
      <trkpt lat="47.592168" lon="7.807575">
        <ele>359.255603</ele>
        <time>2021-11-07T15:38:03.402Z</time>
      </trkpt>
      <trkpt lat="47.592169" lon="7.806682">
        <ele>358.434478</ele>
        <time>2021-11-07T15:38:10.131Z</time>
      </trkpt>
      <trkpt lat="47.592150" lon="7.806138">
        <ele>357.933592</ele>
        <time>2021-11-07T15:38:14.421Z</time>
      </trkpt>
      <trkpt lat="47.592165" lon="7.805229">
        <ele>357.097505</ele>
        <time>2021-11-07T15:38:21.971Z</time>
      </trkpt>
      <trkpt lat="47.591909" lon="7.803595">
        <ele>357.190653</ele>
        <time>2021-11-07T15:38:38.895Z</time>
      </trkpt>
      <trkpt lat="47.591811" lon="7.803249">
        <ele>357.239908</ele>
        <time>2021-11-07T15:38:43.122Z</time>
      </trkpt>
      <trkpt lat="47.591721" lon="7.802939">
        <ele>357.284206</ele>
        <time>2021-11-07T15:38:47.547Z</time>
      </trkpt>
      <trkpt lat="47.591292" lon="7.802648">
        <ele>357.516096</ele>
        <time>2021-11-07T15:38:55.458Z</time>
      </trkpt>
      <trkpt lat="47.591109" lon="7.802361">
        <ele>357.751188</ele>
        <time>2021-11-07T15:39:00.351Z</time>
      </trkpt>
      <trkpt lat="47.590927" lon="7.801871">
        <ele>358.084156</ele>
        <time>2021-11-07T15:39:07.182Z</time>
      </trkpt>
      <trkpt lat="47.590854" lon="7.801694">
        <ele>358.207649</ele>
        <time>2021-11-07T15:39:09.872Z</time>
      </trkpt>
      <trkpt lat="47.590431" lon="7.801257">
        <ele>358.662659</ele>
        <time>2021-11-07T15:39:18.742Z</time>
      </trkpt>
      <trkpt lat="47.590019" lon="7.800882">
        <ele>359.251882</ele>
        <time>2021-11-07T15:39:28.090Z</time>
      </trkpt>
      <trkpt lat="47.589959" lon="7.800811">
        <ele>359.386180</ele>
        <time>2021-11-07T15:39:30.227Z</time>
      </trkpt>
      <trkpt lat="47.589545" lon="7.800321">
        <ele>360.312915</ele>
        <time>2021-11-07T15:39:41.494Z</time>
      </trkpt>
      <trkpt lat="47.589168" lon="7.799966">
        <ele>361.094230</ele>
        <time>2021-11-07T15:39:51.071Z</time>
      </trkpt>
      <trkpt lat="47.589236" lon="7.799724">
        <ele>361.403560</ele>
        <time>2021-11-07T15:39:56.491Z</time>
      </trkpt>
      <trkpt lat="47.589232" lon="7.799461">
        <ele>361.713955</ele>
        <time>2021-11-07T15:40:01.228Z</time>
      </trkpt>
      <trkpt lat="47.589230" lon="7.799281">
        <ele>361.926368</ele>
        <time>2021-11-07T15:40:05.145Z</time>
      </trkpt>
      <trkpt lat="47.589167" lon="7.798816">
        <ele>362.480982</ele>
        <time>2021-11-07T15:40:14.118Z</time>
      </trkpt>
      <trkpt lat="47.589153" lon="7.798651">
        <ele>362.674839</ele>
        <time>2021-11-07T15:40:17.465Z</time>
      </trkpt>
      <trkpt lat="47.589272" lon="7.798569">
        <ele>362.901644</ele>
        <time>2021-11-07T15:40:20.382Z</time>
      </trkpt>
      <trkpt lat="47.589486" lon="7.798387">
        <ele>363.328045</ele>
        <time>2021-11-07T15:40:26.234Z</time>
      </trkpt>
      <trkpt lat="47.589692" lon="7.798248">
        <ele>363.719228</ele>
        <time>2021-11-07T15:40:31.365Z</time>
      </trkpt>
      <trkpt lat="47.589924" lon="7.798072">
        <ele>364.169651</ele>
        <time>2021-11-07T15:40:37.519Z</time>
      </trkpt>
      <trkpt lat="47.590924" lon="7.797504">
        <ele>364.811992</ele>
        <time>2021-11-07T15:40:58.205Z</time>
      </trkpt>
      <trkpt lat="47.591349" lon="7.797193">
        <ele>364.454395</ele>
        <time>2021-11-07T15:41:04.916Z</time>
      </trkpt>
      <trkpt lat="47.591728" lon="7.796915">
        <ele>364.135353</ele>
        <time>2021-11-07T15:41:09.841Z</time>
      </trkpt>
      <trkpt lat="47.592114" lon="7.796545">
        <ele>363.589693</ele>
        <time>2021-11-07T15:41:14.693Z</time>
      </trkpt>
      <trkpt lat="47.592429" lon="7.796406">
        <ele>361.873125</ele>
        <time>2021-11-07T15:41:18.020Z</time>
      </trkpt>
      <trkpt lat="47.592802" lon="7.796368">
        <ele>359.920335</ele>
        <time>2021-11-07T15:41:21.611Z</time>
      </trkpt>
      <trkpt lat="47.593608" lon="7.796793">
        <ele>355.452310</ele>
        <time>2021-11-07T15:41:29.395Z</time>
      </trkpt>
      <trkpt lat="47.594060" lon="7.796856">
        <ele>352.812905</ele>
        <time>2021-11-07T15:41:33.480Z</time>
      </trkpt>
      <trkpt lat="47.594601" lon="7.796746">
        <ele>349.392806</ele>
        <time>2021-11-07T15:41:38.388Z</time>
      </trkpt>
      <trkpt lat="47.594592" lon="7.795962">
        <ele>346.080921</ele>
        <time>2021-11-07T15:41:43.202Z</time>
      </trkpt>
      <trkpt lat="47.594615" lon="7.795353">
        <ele>343.504639</ele>
        <time>2021-11-07T15:41:46.989Z</time>
      </trkpt>
      <trkpt lat="47.594694" lon="7.794211">
        <ele>341.249514</ele>
        <time>2021-11-07T15:41:54.406Z</time>
      </trkpt>
      <trkpt lat="47.594650" lon="7.793807">
        <ele>340.515814</ele>
        <time>2021-11-07T15:41:57.302Z</time>
      </trkpt>
      <trkpt lat="47.594491" lon="7.793515">
        <ele>339.842944</ele>
        <time>2021-11-07T15:42:00.151Z</time>
      </trkpt>
      <trkpt lat="47.594337" lon="7.793337">
        <ele>339.323841</ele>
        <time>2021-11-07T15:42:02.465Z</time>
      </trkpt>
      <trkpt lat="47.594118" lon="7.793102">
        <ele>338.605161</ele>
        <time>2021-11-07T15:42:06.172Z</time>
      </trkpt>
      <trkpt lat="47.594068" lon="7.792892">
        <ele>338.441568</ele>
        <time>2021-11-07T15:42:08.273Z</time>
      </trkpt>
      <trkpt lat="47.594082" lon="7.792808">
        <ele>338.495644</ele>
        <time>2021-11-07T15:42:09.284Z</time>
      </trkpt>
      <trkpt lat="47.594154" lon="7.792816">
        <ele>338.562555</ele>
        <time>2021-11-07T15:42:10.402Z</time>
      </trkpt>
      <trkpt lat="47.595133" lon="7.792800">
        <ele>339.469869</ele>
        <time>2021-11-07T15:42:27.922Z</time>
      </trkpt>
      <trkpt lat="47.595245" lon="7.792802">
        <ele>339.573669</ele>
        <time>2021-11-07T15:42:30.281Z</time>
      </trkpt>
      <trkpt lat="47.595750" lon="7.792802">
        <ele>340.041663</ele>
        <time>2021-11-07T15:42:41.291Z</time>
      </trkpt>
      <trkpt lat="47.596504" lon="7.792669">
        <ele>341.611176</ele>
        <time>2021-11-07T15:42:58.382Z</time>
      </trkpt>
      <trkpt lat="47.597646" lon="7.792396">
        <ele>344.079592</ele>
        <time>2021-11-07T15:43:25.637Z</time>
      </trkpt>
      <trkpt lat="47.597848" lon="7.792115">
        <ele>344.820225</ele>
        <time>2021-11-07T15:43:32.724Z</time>
      </trkpt>
      <trkpt lat="47.598017" lon="7.791913">
        <ele>345.400669</ele>
        <time>2021-11-07T15:43:38.271Z</time>
      </trkpt>
      <trkpt lat="47.598252" lon="7.791731">
        <ele>346.109620</ele>
        <time>2021-11-07T15:43:45.424Z</time>
      </trkpt>
      <trkpt lat="47.598592" lon="7.791580">
        <ele>347.058713</ele>
        <time>2021-11-07T15:43:54.984Z</time>
      </trkpt>
      <trkpt lat="47.599667" lon="7.791105">
        <ele>349.576673</ele>
        <time>2021-11-07T15:44:23.470Z</time>
      </trkpt>
      <trkpt lat="47.600151" lon="7.790895">
        <ele>350.482222</ele>
        <time>2021-11-07T15:44:34.306Z</time>
      </trkpt>
      <trkpt lat="47.600211" lon="7.790869">
        <ele>350.594469</ele>
        <time>2021-11-07T15:44:35.604Z</time>
      </trkpt>
      <trkpt lat="47.600304" lon="7.790832">
        <ele>350.767374</ele>
        <time>2021-11-07T15:44:37.598Z</time>
      </trkpt>
      <trkpt lat="47.601073" lon="7.790573">
        <ele>352.019788</ele>
        <time>2021-11-07T15:44:53.054Z</time>
      </trkpt>
      <trkpt lat="47.601359" lon="7.790478">
        <ele>352.307805</ele>
        <time>2021-11-07T15:44:58.468Z</time>
      </trkpt>
      <trkpt lat="47.601768" lon="7.790511">
        <ele>352.710325</ele>
        <time>2021-11-07T15:45:05.933Z</time>
      </trkpt>
      <trkpt lat="47.601954" lon="7.790533">
        <ele>352.893689</ele>
        <time>2021-11-07T15:45:09.258Z</time>
      </trkpt>
      <trkpt lat="47.602292" lon="7.790564">
        <ele>353.226477</ele>
        <time>2021-11-07T15:45:15.466Z</time>
      </trkpt>
      <trkpt lat="47.603218" lon="7.790665">
        <ele>354.488275</ele>
        <time>2021-11-07T15:45:33.128Z</time>
      </trkpt>
      <trkpt lat="47.603379" lon="7.790683">
        <ele>354.747833</ele>
        <time>2021-11-07T15:45:36.525Z</time>
      </trkpt>
      <trkpt lat="47.603500" lon="7.790696">
        <ele>354.942862</ele>
        <time>2021-11-07T15:45:39.209Z</time>
      </trkpt>
      <trkpt lat="47.604020" lon="7.790669">
        <ele>355.779327</ele>
        <time>2021-11-07T15:45:50.591Z</time>
      </trkpt>
      <trkpt lat="47.604312" lon="7.790667">
        <ele>356.248751</ele>
        <time>2021-11-07T15:45:57.092Z</time>
      </trkpt>
      <trkpt lat="47.604673" lon="7.790747">
        <ele>357.184792</ele>
        <time>2021-11-07T15:46:05.553Z</time>
      </trkpt>
      <trkpt lat="47.604776" lon="7.790738">
        <ele>357.514072</ele>
        <time>2021-11-07T15:46:08.106Z</time>
      </trkpt>
      <trkpt lat="47.604861" lon="7.790465">
        <ele>358.161107</ele>
        <time>2021-11-07T15:46:13.208Z</time>
      </trkpt>
      <trkpt lat="47.604933" lon="7.789879">
        <ele>359.442793</ele>
        <time>2021-11-07T15:46:23.947Z</time>
      </trkpt>
      <trkpt lat="47.605245" lon="7.789093">
        <ele>361.405393</ele>
        <time>2021-11-07T15:46:41.986Z</time>
      </trkpt>
      <trkpt lat="47.606058" lon="7.787870">
        <ele>365.340449</ele>
        <time>2021-11-07T15:47:19.323Z</time>
      </trkpt>
      <trkpt lat="47.606236" lon="7.787573">
        <ele>366.266605</ele>
        <time>2021-11-07T15:47:26.759Z</time>
      </trkpt>
      <trkpt lat="47.606482" lon="7.786756">
        <ele>368.352013</ele>
        <time>2021-11-07T15:47:42.620Z</time>
      </trkpt>
      <trkpt lat="47.606894" lon="7.785802">
        <ele>369.495200</ele>
        <time>2021-11-07T15:47:58.837Z</time>
      </trkpt>
      <trkpt lat="47.607090" lon="7.785536">
        <ele>369.875121</ele>
        <time>2021-11-07T15:48:04.266Z</time>
      </trkpt>
      <trkpt lat="47.607244" lon="7.785405">
        <ele>370.128999</ele>
        <time>2021-11-07T15:48:07.456Z</time>
      </trkpt>
      <trkpt lat="47.607357" lon="7.785276">
        <ele>370.332919</ele>
        <time>2021-11-07T15:48:10.409Z</time>
      </trkpt>
      <trkpt lat="47.607784" lon="7.784501">
        <ele>371.556008</ele>
        <time>2021-11-07T15:48:21.935Z</time>
      </trkpt>
      <trkpt lat="47.607811" lon="7.784422">
        <ele>371.718196</ele>
        <time>2021-11-07T15:48:23.242Z</time>
      </trkpt>
      <trkpt lat="47.608000" lon="7.783873">
        <ele>372.846987</ele>
        <time>2021-11-07T15:48:31.994Z</time>
      </trkpt>
      <trkpt lat="47.608067" lon="7.783679">
        <ele>373.246131</ele>
        <time>2021-11-07T15:48:35.639Z</time>
      </trkpt>
      <trkpt lat="47.608293" lon="7.782840">
        <ele>374.900562</ele>
        <time>2021-11-07T15:48:52.453Z</time>
      </trkpt>
      <trkpt lat="47.608319" lon="7.782746">
        <ele>375.086614</ele>
        <time>2021-11-07T15:48:54.647Z</time>
      </trkpt>
      <trkpt lat="47.608448" lon="7.782041">
        <ele>377.152242</ele>
        <time>2021-11-07T15:49:10.562Z</time>
      </trkpt>
      <trkpt lat="47.608437" lon="7.781938">
        <ele>377.606414</ele>
        <time>2021-11-07T15:49:12.937Z</time>
      </trkpt>
      <trkpt lat="47.608309" lon="7.781587">
        <ele>379.344359</ele>
        <time>2021-11-07T15:49:22.849Z</time>
      </trkpt>
      <trkpt lat="47.608295" lon="7.781364">
        <ele>380.319757</ele>
        <time>2021-11-07T15:49:28.397Z</time>
      </trkpt>
      <trkpt lat="47.608399" lon="7.780950">
        <ele>382.243877</ele>
        <time>2021-11-07T15:49:40.421Z</time>
      </trkpt>
      <trkpt lat="47.608573" lon="7.780374">
        <ele>384.992732</ele>
        <time>2021-11-07T15:49:59.612Z</time>
      </trkpt>
      <trkpt lat="47.608894" lon="7.779407">
        <ele>390.222008</ele>
        <time>2021-11-07T15:50:34.226Z</time>
      </trkpt>
      <trkpt lat="47.609368" lon="7.778574">
        <ele>396.138723</ele>
        <time>2021-11-07T15:51:09.669Z</time>
      </trkpt>
      <trkpt lat="47.610133" lon="7.777501">
        <ele>404.026820</ele>
        <time>2021-11-07T15:51:58.530Z</time>
      </trkpt>
      <trkpt lat="47.610341" lon="7.777059">
        <ele>406.295091</ele>
        <time>2021-11-07T15:52:14.278Z</time>
      </trkpt>
      <trkpt lat="47.610448" lon="7.776605">
        <ele>408.318922</ele>
        <time>2021-11-07T15:52:27.490Z</time>
      </trkpt>
      <trkpt lat="47.610502" lon="7.776042">
        <ele>410.711907</ele>
        <time>2021-11-07T15:52:42.201Z</time>
      </trkpt>
      <trkpt lat="47.610473" lon="7.775477">
        <ele>413.096331</ele>
        <time>2021-11-07T15:52:55.651Z</time>
      </trkpt>
      <trkpt lat="47.610312" lon="7.774653">
        <ele>414.999714</ele>
        <time>2021-11-07T15:53:12.887Z</time>
      </trkpt>
      <trkpt lat="47.610139" lon="7.773592">
        <ele>417.342654</ele>
        <time>2021-11-07T15:53:32.084Z</time>
      </trkpt>
      <trkpt lat="47.610132" lon="7.773138">
        <ele>418.317356</ele>
        <time>2021-11-07T15:53:39.834Z</time>
      </trkpt>
      <trkpt lat="47.610187" lon="7.772679">
        <ele>419.263435</ele>
        <time>2021-11-07T15:53:47.530Z</time>
      </trkpt>
      <trkpt lat="47.610258" lon="7.772352">
        <ele>419.891734</ele>
        <time>2021-11-07T15:53:52.607Z</time>
      </trkpt>
      <trkpt lat="47.610490" lon="7.771899">
        <ele>420.932166</ele>
        <time>2021-11-07T15:54:01.721Z</time>
      </trkpt>
      <trkpt lat="47.611349" lon="7.770818">
        <ele>424.041005</ele>
        <time>2021-11-07T15:54:30.775Z</time>
      </trkpt>
      <trkpt lat="47.611495" lon="7.770538">
        <ele>424.903008</ele>
        <time>2021-11-07T15:54:38.790Z</time>
      </trkpt>
      <trkpt lat="47.611735" lon="7.769126">
        <ele>428.449071</ele>
        <time>2021-11-07T15:55:08.473Z</time>
      </trkpt>
      <trkpt lat="47.611843" lon="7.768871">
        <ele>429.182412</ele>
        <time>2021-11-07T15:55:14.500Z</time>
      </trkpt>
      <trkpt lat="47.611720" lon="7.768321">
        <ele>430.583482</ele>
        <time>2021-11-07T15:55:25.227Z</time>
      </trkpt>
      <trkpt lat="47.610953" lon="7.766512">
        <ele>435.592489</ele>
        <time>2021-11-07T15:56:05.922Z</time>
      </trkpt>
      <trkpt lat="47.610892" lon="7.766368">
        <ele>435.991117</ele>
        <time>2021-11-07T15:56:09.527Z</time>
      </trkpt>
      <trkpt lat="47.610797" lon="7.765993">
        <ele>437.050600</ele>
        <time>2021-11-07T15:56:17.005Z</time>
      </trkpt>
      <trkpt lat="47.610767" lon="7.765723">
        <ele>437.912248</ele>
        <time>2021-11-07T15:56:22.538Z</time>
      </trkpt>
      <trkpt lat="47.610607" lon="7.764328">
        <ele>442.367959</ele>
        <time>2021-11-07T15:56:55.818Z</time>
      </trkpt>
      <trkpt lat="47.610505" lon="7.763094">
        <ele>445.948180</ele>
        <time>2021-11-07T15:57:25.161Z</time>
      </trkpt>
      <trkpt lat="47.610510" lon="7.762675">
        <ele>446.928868</ele>
        <time>2021-11-07T15:57:34.613Z</time>
      </trkpt>
      <trkpt lat="47.610549" lon="7.761995">
        <ele>448.525937</ele>
        <time>2021-11-07T15:57:47.957Z</time>
      </trkpt>
      <trkpt lat="47.610580" lon="7.761637">
        <ele>449.370602</ele>
        <time>2021-11-07T15:57:54.672Z</time>
      </trkpt>
      <trkpt lat="47.610601" lon="7.761374">
        <ele>449.990369</ele>
        <time>2021-11-07T15:57:59.246Z</time>
      </trkpt>
      <trkpt lat="47.610760" lon="7.761304">
        <ele>450.566089</ele>
        <time>2021-11-07T15:58:03.459Z</time>
      </trkpt>
      <trkpt lat="47.610854" lon="7.761285">
        <ele>450.895399</ele>
        <time>2021-11-07T15:58:05.599Z</time>
      </trkpt>
      <trkpt lat="47.611250" lon="7.761348">
        <ele>451.374287</ele>
        <time>2021-11-07T15:58:14.622Z</time>
      </trkpt>
      <trkpt lat="47.611933" lon="7.761457">
        <ele>451.715158</ele>
        <time>2021-11-07T15:58:26.003Z</time>
      </trkpt>
      <trkpt lat="47.612022" lon="7.761449">
        <ele>451.759402</ele>
        <time>2021-11-07T15:58:27.510Z</time>
      </trkpt>
      <trkpt lat="47.612075" lon="7.761435">
        <ele>451.786115</ele>
        <time>2021-11-07T15:58:28.298Z</time>
      </trkpt>
      <trkpt lat="47.612127" lon="7.761383">
        <ele>451.817234</ele>
        <time>2021-11-07T15:58:29.231Z</time>
      </trkpt>
      <trkpt lat="47.612441" lon="7.760890">
        <ele>452.044116</ele>
        <time>2021-11-07T15:58:35.974Z</time>
      </trkpt>
      <trkpt lat="47.612523" lon="7.760811">
        <ele>452.092635</ele>
        <time>2021-11-07T15:58:37.347Z</time>
      </trkpt>
      <trkpt lat="47.612630" lon="7.760759">
        <ele>451.947183</ele>
        <time>2021-11-07T15:58:38.828Z</time>
      </trkpt>
      <trkpt lat="47.612812" lon="7.760726">
        <ele>451.473185</ele>
        <time>2021-11-07T15:58:41.152Z</time>
      </trkpt>
      <trkpt lat="47.612960" lon="7.760706">
        <ele>451.088999</ele>
        <time>2021-11-07T15:58:42.951Z</time>
      </trkpt>
      <trkpt lat="47.613059" lon="7.760674">
        <ele>450.827064</ele>
        <time>2021-11-07T15:58:44.127Z</time>
      </trkpt>
      <trkpt lat="47.613148" lon="7.760607">
        <ele>450.569053</ele>
        <time>2021-11-07T15:58:45.200Z</time>
      </trkpt>
      <trkpt lat="47.613231" lon="7.760404">
        <ele>450.155295</ele>
        <time>2021-11-07T15:58:46.985Z</time>
      </trkpt>
      <trkpt lat="47.613222" lon="7.760189">
        <ele>449.779887</ele>
        <time>2021-11-07T15:58:48.607Z</time>
      </trkpt>
      <trkpt lat="47.613205" lon="7.760080">
        <ele>449.584912</ele>
        <time>2021-11-07T15:58:49.330Z</time>
      </trkpt>
      <trkpt lat="47.613053" lon="7.759623">
        <ele>448.696822</ele>
        <time>2021-11-07T15:58:52.779Z</time>
      </trkpt>
      <trkpt lat="47.612944" lon="7.759245">
        <ele>447.980332</ele>
        <time>2021-11-07T15:58:55.613Z</time>
      </trkpt>
      <trkpt lat="47.612830" lon="7.758759">
        <ele>446.503519</ele>
        <time>2021-11-07T15:58:58.946Z</time>
      </trkpt>
      <trkpt lat="47.612779" lon="7.758543">
        <ele>445.500273</ele>
        <time>2021-11-07T15:59:00.342Z</time>
      </trkpt>
      <trkpt lat="47.612718" lon="7.758199">
        <ele>443.941027</ele>
        <time>2021-11-07T15:59:02.639Z</time>
      </trkpt>
      <trkpt lat="47.612697" lon="7.758003">
        <ele>443.071062</ele>
        <time>2021-11-07T15:59:03.826Z</time>
      </trkpt>
      <trkpt lat="47.612671" lon="7.757751">
        <ele>441.953537</ele>
        <time>2021-11-07T15:59:05.422Z</time>
      </trkpt>
      <trkpt lat="47.612657" lon="7.757559">
        <ele>441.106980</ele>
        <time>2021-11-07T15:59:06.583Z</time>
      </trkpt>
      <trkpt lat="47.612654" lon="7.757180">
        <ele>439.445488</ele>
        <time>2021-11-07T15:59:08.845Z</time>
      </trkpt>
      <trkpt lat="47.612635" lon="7.756867">
        <ele>438.067874</ele>
        <time>2021-11-07T15:59:10.730Z</time>
      </trkpt>
      <trkpt lat="47.612595" lon="7.756458">
        <ele>436.256219</ele>
        <time>2021-11-07T15:59:13.193Z</time>
      </trkpt>
      <trkpt lat="47.612539" lon="7.756079">
        <ele>434.325941</ele>
        <time>2021-11-07T15:59:15.538Z</time>
      </trkpt>
      <trkpt lat="47.612503" lon="7.755886">
        <ele>433.282374</ele>
        <time>2021-11-07T15:59:16.734Z</time>
      </trkpt>
      <trkpt lat="47.612481" lon="7.755809">
        <ele>432.846555</ele>
        <time>2021-11-07T15:59:17.238Z</time>
      </trkpt>
      <trkpt lat="47.612451" lon="7.755754">
        <ele>432.477865</ele>
        <time>2021-11-07T15:59:17.659Z</time>
      </trkpt>
      <trkpt lat="47.612387" lon="7.755703">
        <ele>431.916260</ele>
        <time>2021-11-07T15:59:18.290Z</time>
      </trkpt>
      <trkpt lat="47.612248" lon="7.755635">
        <ele>430.784829</ele>
        <time>2021-11-07T15:59:19.574Z</time>
      </trkpt>
      <trkpt lat="47.612196" lon="7.755580">
        <ele>430.291134</ele>
        <time>2021-11-07T15:59:20.139Z</time>
      </trkpt>
      <trkpt lat="47.612172" lon="7.755521">
        <ele>429.932030</ele>
        <time>2021-11-07T15:59:20.551Z</time>
      </trkpt>
      <trkpt lat="47.612161" lon="7.755449">
        <ele>429.547301</ele>
        <time>2021-11-07T15:59:21.000Z</time>
      </trkpt>
      <trkpt lat="47.612159" lon="7.755380">
        <ele>429.187388</ele>
        <time>2021-11-07T15:59:21.414Z</time>
      </trkpt>
      <trkpt lat="47.612161" lon="7.755353">
        <ele>429.045836</ele>
        <time>2021-11-07T15:59:21.566Z</time>
      </trkpt>
      <trkpt lat="47.612192" lon="7.754954">
        <ele>426.952759</ele>
        <time>2021-11-07T15:59:23.986Z</time>
      </trkpt>
      <trkpt lat="47.612146" lon="7.754726">
        <ele>425.712512</ele>
        <time>2021-11-07T15:59:25.397Z</time>
      </trkpt>
      <trkpt lat="47.611848" lon="7.754391">
        <ele>422.822108</ele>
        <time>2021-11-07T15:59:28.720Z</time>
      </trkpt>
      <trkpt lat="47.611701" lon="7.754245">
        <ele>421.529495</ele>
        <time>2021-11-07T15:59:30.306Z</time>
      </trkpt>
      <trkpt lat="47.611506" lon="7.753985">
        <ele>419.871142</ele>
        <time>2021-11-07T15:59:32.656Z</time>
      </trkpt>
      <trkpt lat="47.611310" lon="7.753428">
        <ele>417.192087</ele>
        <time>2021-11-07T15:59:36.498Z</time>
      </trkpt>
      <trkpt lat="47.611269" lon="7.753071">
        <ele>415.647942</ele>
        <time>2021-11-07T15:59:38.733Z</time>
      </trkpt>
      <trkpt lat="47.611242" lon="7.752336">
        <ele>412.509319</ele>
        <time>2021-11-07T15:59:43.212Z</time>
      </trkpt>
      <trkpt lat="47.611288" lon="7.751378">
        <ele>409.364494</ele>
        <time>2021-11-07T15:59:49.293Z</time>
      </trkpt>
      <trkpt lat="47.611255" lon="7.751205">
        <ele>408.948732</ele>
        <time>2021-11-07T15:59:50.448Z</time>
      </trkpt>
      <trkpt lat="47.611197" lon="7.751064">
        <ele>408.566771</ele>
        <time>2021-11-07T15:59:51.535Z</time>
      </trkpt>
      <trkpt lat="47.611094" lon="7.750951">
        <ele>408.127331</ele>
        <time>2021-11-07T15:59:52.887Z</time>
      </trkpt>
      <trkpt lat="47.610714" lon="7.750722">
        <ele>406.720407</ele>
        <time>2021-11-07T15:59:57.016Z</time>
      </trkpt>
      <trkpt lat="47.610643" lon="7.750603">
        <ele>406.352929</ele>
        <time>2021-11-07T15:59:58.086Z</time>
      </trkpt>
      <trkpt lat="47.610520" lon="7.750319">
        <ele>405.572336</ele>
        <time>2021-11-07T16:00:00.530Z</time>
      </trkpt>
      <trkpt lat="47.610345" lon="7.749815">
        <ele>404.305232</ele>
        <time>2021-11-07T16:00:04.603Z</time>
      </trkpt>
      <trkpt lat="47.610303" lon="7.749507">
        <ele>404.112901</ele>
        <time>2021-11-07T16:00:06.900Z</time>
      </trkpt>
      <trkpt lat="47.610331" lon="7.749289">
        <ele>403.977073</ele>
        <time>2021-11-07T16:00:08.688Z</time>
      </trkpt>
      <trkpt lat="47.610399" lon="7.749144">
        <ele>403.868965</ele>
        <time>2021-11-07T16:00:10.225Z</time>
      </trkpt>
      <trkpt lat="47.610897" lon="7.748667">
        <ele>403.330779</ele>
        <time>2021-11-07T16:00:18.217Z</time>
      </trkpt>
      <trkpt lat="47.611024" lon="7.748403">
        <ele>403.132279</ele>
        <time>2021-11-07T16:00:21.492Z</time>
      </trkpt>
      <trkpt lat="47.611423" lon="7.747196">
        <ele>401.725012</ele>
        <time>2021-11-07T16:00:33.401Z</time>
      </trkpt>
      <trkpt lat="47.611508" lon="7.746851">
        <ele>401.153118</ele>
        <time>2021-11-07T16:00:36.062Z</time>
      </trkpt>
      <trkpt lat="47.611647" lon="7.746050">
        <ele>399.865353</ele>
        <time>2021-11-07T16:00:41.971Z</time>
      </trkpt>
      <trkpt lat="47.611691" lon="7.745486">
        <ele>398.981379</ele>
        <time>2021-11-07T16:00:45.764Z</time>
      </trkpt>
      <trkpt lat="47.611651" lon="7.745141">
        <ele>398.383213</ele>
        <time>2021-11-07T16:00:48.137Z</time>
      </trkpt>
      <trkpt lat="47.611609" lon="7.744853">
        <ele>397.675256</ele>
        <time>2021-11-07T16:00:50.049Z</time>
      </trkpt>
      <trkpt lat="47.611456" lon="7.744262">
        <ele>396.154213</ele>
        <time>2021-11-07T16:00:54.320Z</time>
      </trkpt>
      <trkpt lat="47.611241" lon="7.743837">
        <ele>394.877579</ele>
        <time>2021-11-07T16:00:57.890Z</time>
      </trkpt>
      <trkpt lat="47.611161" lon="7.743634">
        <ele>394.312625</ele>
        <time>2021-11-07T16:00:59.444Z</time>
      </trkpt>
      <trkpt lat="47.611010" lon="7.743033">
        <ele>392.771621</ele>
        <time>2021-11-07T16:01:03.679Z</time>
      </trkpt>
      <trkpt lat="47.610879" lon="7.741793">
        <ele>390.357793</ele>
        <time>2021-11-07T16:01:12.367Z</time>
      </trkpt>
      <trkpt lat="47.610871" lon="7.741420">
        <ele>389.689026</ele>
        <time>2021-11-07T16:01:15.135Z</time>
      </trkpt>
      <trkpt lat="47.610898" lon="7.741056">
        <ele>389.032788</ele>
        <time>2021-11-07T16:01:17.896Z</time>
      </trkpt>
      <trkpt lat="47.611129" lon="7.739819">
        <ele>386.811930</ele>
        <time>2021-11-07T16:01:26.949Z</time>
      </trkpt>
      <trkpt lat="47.611382" lon="7.739254">
        <ele>385.754480</ele>
        <time>2021-11-07T16:01:31.603Z</time>
      </trkpt>
      <trkpt lat="47.611618" lon="7.738936">
        <ele>385.017162</ele>
        <time>2021-11-07T16:01:34.943Z</time>
      </trkpt>
      <trkpt lat="47.611684" lon="7.738828">
        <ele>384.789907</ele>
        <time>2021-11-07T16:01:36.018Z</time>
      </trkpt>
      <trkpt lat="47.611751" lon="7.738698">
        <ele>384.534795</ele>
        <time>2021-11-07T16:01:37.223Z</time>
      </trkpt>
      <trkpt lat="47.611785" lon="7.738609">
        <ele>384.375315</ele>
        <time>2021-11-07T16:01:37.911Z</time>
      </trkpt>
      <trkpt lat="47.611872" lon="7.738156">
        <ele>383.640988</ele>
        <time>2021-11-07T16:01:41.507Z</time>
      </trkpt>
      <trkpt lat="47.611893" lon="7.737711">
        <ele>383.245591</ele>
        <time>2021-11-07T16:01:44.963Z</time>
      </trkpt>
      <trkpt lat="47.611965" lon="7.737457">
        <ele>383.357770</ele>
        <time>2021-11-07T16:01:47.127Z</time>
      </trkpt>
      <trkpt lat="47.612044" lon="7.737224">
        <ele>383.463952</ele>
        <time>2021-11-07T16:01:49.278Z</time>
      </trkpt>
      <trkpt lat="47.612044" lon="7.737224">
        <ele>383.463952</ele>
        <time>2021-11-07T16:01:49.280Z</time>
      </trkpt>
      <trkpt lat="47.612194" lon="7.737048">
        <ele>383.579452</ele>
        <time>2021-11-07T16:01:52.248Z</time>
      </trkpt>
      <trkpt lat="47.612447" lon="7.736778">
        <ele>383.767674</ele>
        <time>2021-11-07T16:01:57.210Z</time>
      </trkpt>
      <trkpt lat="47.612712" lon="7.736151">
        <ele>384.068957</ele>
        <time>2021-11-07T16:02:07.618Z</time>
      </trkpt>
      <trkpt lat="47.613210" lon="7.735944">
        <ele>385.159372</ele>
        <time>2021-11-07T16:02:19.618Z</time>
      </trkpt>
      <trkpt lat="47.613317" lon="7.735838">
        <ele>385.778776</ele>
        <time>2021-11-07T16:02:23.483Z</time>
      </trkpt>
      <trkpt lat="47.613375" lon="7.735736">
        <ele>386.211824</ele>
        <time>2021-11-07T16:02:25.671Z</time>
      </trkpt>
      <trkpt lat="47.613434" lon="7.735397">
        <ele>387.348039</ele>
        <time>2021-11-07T16:02:32.887Z</time>
      </trkpt>
      <trkpt lat="47.613390" lon="7.735211">
        <ele>387.987743</ele>
        <time>2021-11-07T16:02:37.183Z</time>
      </trkpt>
      <trkpt lat="47.613360" lon="7.735180">
        <ele>388.163749</ele>
        <time>2021-11-07T16:02:38.258Z</time>
      </trkpt>
      <trkpt lat="47.613181" lon="7.734997">
        <ele>389.210283</ele>
        <time>2021-11-07T16:02:47.326Z</time>
      </trkpt>
      <trkpt lat="47.612755" lon="7.734867">
        <ele>391.303991</ele>
        <time>2021-11-07T16:03:03.801Z</time>
      </trkpt>
      <trkpt lat="47.612618" lon="7.734756">
        <ele>392.055475</ele>
        <time>2021-11-07T16:03:10.700Z</time>
      </trkpt>
      <trkpt lat="47.612558" lon="7.734604">
        <ele>392.627105</ele>
        <time>2021-11-07T16:03:15.210Z</time>
      </trkpt>
      <trkpt lat="47.612560" lon="7.734334">
        <ele>393.705955</ele>
        <time>2021-11-07T16:03:22.979Z</time>
      </trkpt>
      <trkpt lat="47.612562" lon="7.734273">
        <ele>393.973968</ele>
        <time>2021-11-07T16:03:24.747Z</time>
      </trkpt>
      <trkpt lat="47.612580" lon="7.733842">
        <ele>395.869028</ele>
        <time>2021-11-07T16:03:34.536Z</time>
      </trkpt>
      <trkpt lat="47.612580" lon="7.733841">
        <ele>395.873416</ele>
        <time>2021-11-07T16:03:34.930Z</time>
      </trkpt>
      <trkpt lat="47.612582" lon="7.733083">
        <ele>399.199906</ele>
        <time>2021-11-07T16:03:55.254Z</time>
      </trkpt>
      <trkpt lat="47.612414" lon="7.731732">
        <ele>405.187403</ele>
        <time>2021-11-07T16:04:35.171Z</time>
      </trkpt>
      <trkpt lat="47.612490" lon="7.730332">
        <ele>410.920299</ele>
        <time>2021-11-07T16:05:09.897Z</time>
      </trkpt>
      <trkpt lat="47.612445" lon="7.730023">
        <ele>412.210642</ele>
        <time>2021-11-07T16:05:17.360Z</time>
      </trkpt>
      <trkpt lat="47.612234" lon="7.729223">
        <ele>415.793837</ele>
        <time>2021-11-07T16:05:39.616Z</time>
      </trkpt>
      <trkpt lat="47.612102" lon="7.728839">
        <ele>418.265183</ele>
        <time>2021-11-07T16:05:53.030Z</time>
      </trkpt>
      <trkpt lat="47.611794" lon="7.728207">
        <ele>422.736405</ele>
        <time>2021-11-07T16:06:18.664Z</time>
      </trkpt>
      <trkpt lat="47.611673" lon="7.727743">
        <ele>425.588850</ele>
        <time>2021-11-07T16:06:35.704Z</time>
      </trkpt>
      <trkpt lat="47.611558" lon="7.727374">
        <ele>427.919651</ele>
        <time>2021-11-07T16:06:49.392Z</time>
      </trkpt>
      <trkpt lat="47.611447" lon="7.727328">
        <ele>428.899831</ele>
        <time>2021-11-07T16:06:56.826Z</time>
      </trkpt>
      <trkpt lat="47.610833" lon="7.727203">
        <ele>433.542513</ele>
        <time>2021-11-07T16:07:29.098Z</time>
      </trkpt>
      <trkpt lat="47.610604" lon="7.726979">
        <ele>435.437505</ele>
        <time>2021-11-07T16:07:43.318Z</time>
      </trkpt>
      <trkpt lat="47.610496" lon="7.727149">
        <ele>436.525392</ele>
        <time>2021-11-07T16:07:54.409Z</time>
      </trkpt>
      <trkpt lat="47.610604" lon="7.726979">
        <ele>437.613279</ele>
        <time>2021-11-07T16:08:05.183Z</time>
      </trkpt>
      <trkpt lat="47.610578" lon="7.726917">
        <ele>437.953336</ele>
        <time>2021-11-07T16:08:07.588Z</time>
      </trkpt>
      <trkpt lat="47.610415" lon="7.726318">
        <ele>440.961741</ele>
        <time>2021-11-07T16:08:24.387Z</time>
      </trkpt>
      <trkpt lat="47.610108" lon="7.725107">
        <ele>443.653855</ele>
        <time>2021-11-07T16:08:47.557Z</time>
      </trkpt>
      <trkpt lat="47.609970" lon="7.724684">
        <ele>443.890498</ele>
        <time>2021-11-07T16:08:53.287Z</time>
      </trkpt>
      <trkpt lat="47.609742" lon="7.724373">
        <ele>444.121866</ele>
        <time>2021-11-07T16:08:57.810Z</time>
      </trkpt>
      <trkpt lat="47.609636" lon="7.724285">
        <ele>444.212601</ele>
        <time>2021-11-07T16:08:59.232Z</time>
      </trkpt>
      <trkpt lat="47.609341" lon="7.724198">
        <ele>444.437266</ele>
        <time>2021-11-07T16:09:02.770Z</time>
      </trkpt>
      <trkpt lat="47.609161" lon="7.724017">
        <ele>444.579986</ele>
        <time>2021-11-07T16:09:05.341Z</time>
      </trkpt>
      <trkpt lat="47.609127" lon="7.723743">
        <ele>444.292886</ele>
        <time>2021-11-07T16:09:07.555Z</time>
      </trkpt>
      <trkpt lat="47.609174" lon="7.722708">
        <ele>443.223902</ele>
        <time>2021-11-07T16:09:15.698Z</time>
      </trkpt>
      <trkpt lat="47.608991" lon="7.721651">
        <ele>442.099319</ele>
        <time>2021-11-07T16:09:24.107Z</time>
      </trkpt>
      <trkpt lat="47.608945" lon="7.721056">
        <ele>441.498074</ele>
        <time>2021-11-07T16:09:28.617Z</time>
      </trkpt>
      <trkpt lat="47.608949" lon="7.720323">
        <ele>440.775930</ele>
        <time>2021-11-07T16:09:33.913Z</time>
      </trkpt>
      <trkpt lat="47.609035" lon="7.720082">
        <ele>440.507301</ele>
        <time>2021-11-07T16:09:36.158Z</time>
      </trkpt>
      <trkpt lat="47.609123" lon="7.720028">
        <ele>440.368141</ele>
        <time>2021-11-07T16:09:37.301Z</time>
      </trkpt>
      <trkpt lat="47.609694" lon="7.720088">
        <ele>439.531676</ele>
        <time>2021-11-07T16:09:43.994Z</time>
      </trkpt>
      <trkpt lat="47.609869" lon="7.719982">
        <ele>439.255457</ele>
        <time>2021-11-07T16:09:46.463Z</time>
      </trkpt>
      <trkpt lat="47.609938" lon="7.719910">
        <ele>439.190268</ele>
        <time>2021-11-07T16:09:47.269Z</time>
      </trkpt>
      <trkpt lat="47.609981" lon="7.719813">
        <ele>439.155433</ele>
        <time>2021-11-07T16:09:49.163Z</time>
      </trkpt>
      <trkpt lat="47.610040" lon="7.719503">
        <ele>439.058777</ele>
        <time>2021-11-07T16:09:51.942Z</time>
      </trkpt>
      <trkpt lat="47.609964" lon="7.719178">
        <ele>438.955555</ele>
        <time>2021-11-07T16:09:55.090Z</time>
      </trkpt>
      <trkpt lat="47.609896" lon="7.719065">
        <ele>438.910105</ele>
        <time>2021-11-07T16:09:56.546Z</time>
      </trkpt>
      <trkpt lat="47.609572" lon="7.718806">
        <ele>438.746288</ele>
        <time>2021-11-07T16:10:01.566Z</time>
      </trkpt>
      <trkpt lat="47.609453" lon="7.718554">
        <ele>438.653966</ele>
        <time>2021-11-07T16:10:04.378Z</time>
      </trkpt>
      <trkpt lat="47.609476" lon="7.718077">
        <ele>438.510467</ele>
        <time>2021-11-07T16:10:08.925Z</time>
      </trkpt>
      <trkpt lat="47.609289" lon="7.717671">
        <ele>438.325889</ele>
        <time>2021-11-07T16:10:14.035Z</time>
      </trkpt>
      <trkpt lat="47.609310" lon="7.717330">
        <ele>438.150291</ele>
        <time>2021-11-07T16:10:17.161Z</time>
      </trkpt>
      <trkpt lat="47.609360" lon="7.717199">
        <ele>438.073094</ele>
        <time>2021-11-07T16:10:18.536Z</time>
      </trkpt>
      <trkpt lat="47.609492" lon="7.717058">
        <ele>437.949362</ele>
        <time>2021-11-07T16:10:20.554Z</time>
      </trkpt>
      <trkpt lat="47.609597" lon="7.717035">
        <ele>437.868628</ele>
        <time>2021-11-07T16:10:21.829Z</time>
      </trkpt>
      <trkpt lat="47.609949" lon="7.717160">
        <ele>437.593315</ele>
        <time>2021-11-07T16:10:26.258Z</time>
      </trkpt>
      <trkpt lat="47.610060" lon="7.717147">
        <ele>437.508620</ele>
        <time>2021-11-07T16:10:27.660Z</time>
      </trkpt>
      <trkpt lat="47.610141" lon="7.717048">
        <ele>437.428786</ele>
        <time>2021-11-07T16:10:28.925Z</time>
      </trkpt>
      <trkpt lat="47.610179" lon="7.716821">
        <ele>437.308845</ele>
        <time>2021-11-07T16:10:30.799Z</time>
      </trkpt>
      <trkpt lat="47.610137" lon="7.716271">
        <ele>437.039749</ele>
        <time>2021-11-07T16:10:35.346Z</time>
      </trkpt>
      <trkpt lat="47.610177" lon="7.716108">
        <ele>437.010362</ele>
        <time>2021-11-07T16:10:36.846Z</time>
      </trkpt>
      <trkpt lat="47.610328" lon="7.715981">
        <ele>436.966742</ele>
        <time>2021-11-07T16:10:38.938Z</time>
      </trkpt>
      <trkpt lat="47.610823" lon="7.716092">
        <ele>436.840939</ele>
        <time>2021-11-07T16:10:45.327Z</time>
      </trkpt>
      <trkpt lat="47.611451" lon="7.716117">
        <ele>436.683070</ele>
        <time>2021-11-07T16:10:54.095Z</time>
      </trkpt>
      <trkpt lat="47.612400" lon="7.716363">
        <ele>437.657380</ele>
        <time>2021-11-07T16:11:11.724Z</time>
      </trkpt>
      <trkpt lat="47.612794" lon="7.716290">
        <ele>438.345407</ele>
        <time>2021-11-07T16:11:20.136Z</time>
      </trkpt>
      <trkpt lat="47.612886" lon="7.716219">
        <ele>438.525108</ele>
        <time>2021-11-07T16:11:22.721Z</time>
      </trkpt>
      <trkpt lat="47.613063" lon="7.715952">
        <ele>438.962538</ele>
        <time>2021-11-07T16:11:29.186Z</time>
      </trkpt>
      <trkpt lat="47.613126" lon="7.715447">
        <ele>439.562462</ele>
        <time>2021-11-07T16:11:38.103Z</time>
      </trkpt>
      <trkpt lat="47.613053" lon="7.714840">
        <ele>440.371188</ele>
        <time>2021-11-07T16:11:48.466Z</time>
      </trkpt>
      <trkpt lat="47.612918" lon="7.714393">
        <ele>441.032006</ele>
        <time>2021-11-07T16:11:56.494Z</time>
      </trkpt>
      <trkpt lat="47.612715" lon="7.713994">
        <ele>441.706411</ele>
        <time>2021-11-07T16:12:04.402Z</time>
      </trkpt>
      <trkpt lat="47.612616" lon="7.713746">
        <ele>442.095260</ele>
        <time>2021-11-07T16:12:08.753Z</time>
      </trkpt>
      <trkpt lat="47.612529" lon="7.713387">
        <ele>442.609948</ele>
        <time>2021-11-07T16:12:14.181Z</time>
      </trkpt>
      <trkpt lat="47.612421" lon="7.711182">
        <ele>444.385214</ele>
        <time>2021-11-07T16:12:44.020Z</time>
      </trkpt>
      <trkpt lat="47.612153" lon="7.710516">
        <ele>444.877802</ele>
        <time>2021-11-07T16:12:52.565Z</time>
      </trkpt>
      <trkpt lat="47.611851" lon="7.709998">
        <ele>445.092534</ele>
        <time>2021-11-07T16:12:59.929Z</time>
      </trkpt>
      <trkpt lat="47.611254" lon="7.709366">
        <ele>445.287858</ele>
        <time>2021-11-07T16:13:11.680Z</time>
      </trkpt>
      <trkpt lat="47.610962" lon="7.709157">
        <ele>445.374200</ele>
        <time>2021-11-07T16:13:16.501Z</time>
      </trkpt>
      <trkpt lat="47.610583" lon="7.708562">
        <ele>445.625968</ele>
        <time>2021-11-07T16:13:24.559Z</time>
      </trkpt>
      <trkpt lat="47.610375" lon="7.708322">
        <ele>445.898124</ele>
        <time>2021-11-07T16:13:29.219Z</time>
      </trkpt>
      <trkpt lat="47.609945" lon="7.708077">
        <ele>446.373852</ele>
        <time>2021-11-07T16:13:38.134Z</time>
      </trkpt>
      <trkpt lat="47.609432" lon="7.708024">
        <ele>446.904947</ele>
        <time>2021-11-07T16:13:48.369Z</time>
      </trkpt>
      <trkpt lat="47.608857" lon="7.707990">
        <ele>447.432779</ele>
        <time>2021-11-07T16:14:00.635Z</time>
      </trkpt>
      <trkpt lat="47.608616" lon="7.707855">
        <ele>447.586117</ele>
        <time>2021-11-07T16:14:05.902Z</time>
      </trkpt>
      <trkpt lat="47.608415" lon="7.707586">
        <ele>447.747258</ele>
        <time>2021-11-07T16:14:11.167Z</time>
      </trkpt>
      <trkpt lat="47.608185" lon="7.707104">
        <ele>447.984229</ele>
        <time>2021-11-07T16:14:18.518Z</time>
      </trkpt>
      <trkpt lat="47.608116" lon="7.706776">
        <ele>448.122114</ele>
        <time>2021-11-07T16:14:22.467Z</time>
      </trkpt>
      <trkpt lat="47.608202" lon="7.706065">
        <ele>448.411992</ele>
        <time>2021-11-07T16:14:29.194Z</time>
      </trkpt>
      <trkpt lat="47.608553" lon="7.704890">
        <ele>447.455824</ele>
        <time>2021-11-07T16:14:39.673Z</time>
      </trkpt>
      <trkpt lat="47.608768" lon="7.704298">
        <ele>446.954132</ele>
        <time>2021-11-07T16:14:45.042Z</time>
      </trkpt>
      <trkpt lat="47.608889" lon="7.703993">
        <ele>446.690102</ele>
        <time>2021-11-07T16:14:47.841Z</time>
      </trkpt>
      <trkpt lat="47.609456" lon="7.702382">
        <ele>444.066366</ele>
        <time>2021-11-07T16:15:01.978Z</time>
      </trkpt>
      <trkpt lat="47.609709" lon="7.701136">
        <ele>441.812228</ele>
        <time>2021-11-07T16:15:10.907Z</time>
      </trkpt>
      <trkpt lat="47.609747" lon="7.700598">
        <ele>440.043759</ele>
        <time>2021-11-07T16:15:14.367Z</time>
      </trkpt>
      <trkpt lat="47.609728" lon="7.699617">
        <ele>436.835328</ele>
        <time>2021-11-07T16:15:20.565Z</time>
      </trkpt>
      <trkpt lat="47.609692" lon="7.699268">
        <ele>435.681090</ele>
        <time>2021-11-07T16:15:22.737Z</time>
      </trkpt>
      <trkpt lat="47.609650" lon="7.698957">
        <ele>434.644162</ele>
        <time>2021-11-07T16:15:24.745Z</time>
      </trkpt>
      <trkpt lat="47.609551" lon="7.698537">
        <ele>433.357207</ele>
        <time>2021-11-07T16:15:27.529Z</time>
      </trkpt>
      <trkpt lat="47.609508" lon="7.698376">
        <ele>433.262189</ele>
        <time>2021-11-07T16:15:28.649Z</time>
      </trkpt>
      <trkpt lat="47.609485" lon="7.698298">
        <ele>433.215477</ele>
        <time>2021-11-07T16:15:29.173Z</time>
      </trkpt>
      <trkpt lat="47.609246" lon="7.697627">
        <ele>432.799081</ele>
        <time>2021-11-07T16:15:34.290Z</time>
      </trkpt>
      <trkpt lat="47.609041" lon="7.697226">
        <ele>432.522952</ele>
        <time>2021-11-07T16:15:37.846Z</time>
      </trkpt>
      <trkpt lat="47.608771" lon="7.696795">
        <ele>432.200132</ele>
        <time>2021-11-07T16:15:45.199Z</time>
      </trkpt>
      <trkpt lat="47.608196" lon="7.696020">
        <ele>434.319835</ele>
        <time>2021-11-07T16:16:12.744Z</time>
      </trkpt>
      <trkpt lat="47.607987" lon="7.695738">
        <ele>435.850868</ele>
        <time>2021-11-07T16:16:25.013Z</time>
      </trkpt>
      <trkpt lat="47.607798" lon="7.696054">
        <ele>437.394147</ele>
        <time>2021-11-07T16:16:36.469Z</time>
      </trkpt>
      <trkpt lat="47.607767" lon="7.696111">
        <ele>437.661699</ele>
        <time>2021-11-07T16:16:39.078Z</time>
      </trkpt>
      <trkpt lat="47.607667" lon="7.696310">
        <ele>438.568455</ele>
        <time>2021-11-07T16:16:45.312Z</time>
      </trkpt>
      <trkpt lat="47.607510" lon="7.696656">
        <ele>440.092163</ele>
        <time>2021-11-07T16:16:55.079Z</time>
      </trkpt>
      <trkpt lat="47.607399" lon="7.696948">
        <ele>441.316847</ele>
        <time>2021-11-07T16:17:02.279Z</time>
      </trkpt>
      <trkpt lat="47.607241" lon="7.697434">
        <ele>442.609829</ele>
        <time>2021-11-07T16:17:14.991Z</time>
      </trkpt>
      <trkpt lat="47.607183" lon="7.697654">
        <ele>443.110266</ele>
        <time>2021-11-07T16:17:21.369Z</time>
      </trkpt>
      <trkpt lat="47.607050" lon="7.698259">
        <ele>444.458378</ele>
        <time>2021-11-07T16:17:36.103Z</time>
      </trkpt>
      <trkpt lat="47.606976" lon="7.698603">
        <ele>445.223344</ele>
        <time>2021-11-07T16:17:42.917Z</time>
      </trkpt>
      <trkpt lat="47.606926" lon="7.698832">
        <ele>445.733290</ele>
        <time>2021-11-07T16:17:46.435Z</time>
      </trkpt>
      <trkpt lat="47.606797" lon="7.699470">
        <ele>447.144380</ele>
        <time>2021-11-07T16:17:54.337Z</time>
      </trkpt>
      <trkpt lat="47.606660" lon="7.699943">
        <ele>447.649153</ele>
        <time>2021-11-07T16:17:58.916Z</time>
      </trkpt>
      <trkpt lat="47.606445" lon="7.700518">
        <ele>448.144895</ele>
        <time>2021-11-07T16:18:05.751Z</time>
      </trkpt>
      <trkpt lat="47.605980" lon="7.701437">
        <ele>449.011222</ele>
        <time>2021-11-07T16:18:23.648Z</time>
      </trkpt>
      <trkpt lat="47.605215" lon="7.702410">
        <ele>450.416164</ele>
        <time>2021-11-07T16:18:43.931Z</time>
      </trkpt>
      <trkpt lat="47.604601" lon="7.702884">
        <ele>451.458745</ele>
        <time>2021-11-07T16:18:58.668Z</time>
      </trkpt>
      <trkpt lat="47.603904" lon="7.703195">
        <ele>452.213089</ele>
        <time>2021-11-07T16:19:13.807Z</time>
      </trkpt>
      <trkpt lat="47.603759" lon="7.703238">
        <ele>452.286203</ele>
        <time>2021-11-07T16:19:16.956Z</time>
      </trkpt>
      <trkpt lat="47.603613" lon="7.703281">
        <ele>452.359803</ele>
        <time>2021-11-07T16:19:19.623Z</time>
      </trkpt>
      <trkpt lat="47.603346" lon="7.703327">
        <ele>452.492709</ele>
        <time>2021-11-07T16:19:24.546Z</time>
      </trkpt>
      <trkpt lat="47.603078" lon="7.703349">
        <ele>452.625425</ele>
        <time>2021-11-07T16:19:29.239Z</time>
      </trkpt>
      <trkpt lat="47.602741" lon="7.703349">
        <ele>452.792055</ele>
        <time>2021-11-07T16:19:34.592Z</time>
      </trkpt>
      <trkpt lat="47.602034" lon="7.703189">
        <ele>451.889182</ele>
        <time>2021-11-07T16:19:43.543Z</time>
      </trkpt>
      <trkpt lat="47.601068" lon="7.702719">
        <ele>449.389366</ele>
        <time>2021-11-07T16:19:54.079Z</time>
      </trkpt>
      <trkpt lat="47.600825" lon="7.702621">
        <ele>448.770164</ele>
        <time>2021-11-07T16:19:56.537Z</time>
      </trkpt>
      <trkpt lat="47.600662" lon="7.702560">
        <ele>448.261595</ele>
        <time>2021-11-07T16:19:58.208Z</time>
      </trkpt>
      <trkpt lat="47.600598" lon="7.702542">
        <ele>448.003599</ele>
        <time>2021-11-07T16:19:58.854Z</time>
      </trkpt>
      <trkpt lat="47.600490" lon="7.702513">
        <ele>447.568899</ele>
        <time>2021-11-07T16:19:59.906Z</time>
      </trkpt>
      <trkpt lat="47.600440" lon="7.702507">
        <ele>447.370222</ele>
        <time>2021-11-07T16:20:00.404Z</time>
      </trkpt>
      <trkpt lat="47.600343" lon="7.702497">
        <ele>446.985117</ele>
        <time>2021-11-07T16:20:01.375Z</time>
      </trkpt>
      <trkpt lat="47.600237" lon="7.702499">
        <ele>446.565260</ele>
        <time>2021-11-07T16:20:02.419Z</time>
      </trkpt>
      <trkpt lat="47.600141" lon="7.702518">
        <ele>446.181671</ele>
        <time>2021-11-07T16:20:03.349Z</time>
      </trkpt>
      <trkpt lat="47.599943" lon="7.702573">
        <ele>445.383835</ele>
        <time>2021-11-07T16:20:05.337Z</time>
      </trkpt>
      <trkpt lat="47.599670" lon="7.702666">
        <ele>444.274433</ele>
        <time>2021-11-07T16:20:08.058Z</time>
      </trkpt>
      <trkpt lat="47.599487" lon="7.702726">
        <ele>443.532141</ele>
        <time>2021-11-07T16:20:09.868Z</time>
      </trkpt>
      <trkpt lat="47.599072" lon="7.702862">
        <ele>441.848840</ele>
        <time>2021-11-07T16:20:14.007Z</time>
      </trkpt>
      <trkpt lat="47.598495" lon="7.703052">
        <ele>439.408594</ele>
        <time>2021-11-07T16:20:19.776Z</time>
      </trkpt>
      <trkpt lat="47.598120" lon="7.703272">
        <ele>437.727038</ele>
        <time>2021-11-07T16:20:23.687Z</time>
      </trkpt>
      <trkpt lat="47.596806" lon="7.704509">
        <ele>432.812950</ele>
        <time>2021-11-07T16:20:38.727Z</time>
      </trkpt>
      <trkpt lat="47.596597" lon="7.704697">
        <ele>432.399306</ele>
        <time>2021-11-07T16:20:41.446Z</time>
      </trkpt>
      <trkpt lat="47.596518" lon="7.704742">
        <ele>432.256101</ele>
        <time>2021-11-07T16:20:42.410Z</time>
      </trkpt>
      <trkpt lat="47.596317" lon="7.704945">
        <ele>431.844584</ele>
        <time>2021-11-07T16:20:45.696Z</time>
      </trkpt>
      <trkpt lat="47.596172" lon="7.705209">
        <ele>431.456049</ele>
        <time>2021-11-07T16:20:49.388Z</time>
      </trkpt>
      <trkpt lat="47.596152" lon="7.705269">
        <ele>431.379674</ele>
        <time>2021-11-07T16:20:49.917Z</time>
      </trkpt>
      <trkpt lat="47.596106" lon="7.705230">
        <ele>431.290010</ele>
        <time>2021-11-07T16:20:51.377Z</time>
      </trkpt>
      <trkpt lat="47.595932" lon="7.705146">
        <ele>430.980362</ele>
        <time>2021-11-07T16:20:54.168Z</time>
      </trkpt>
      <trkpt lat="47.595742" lon="7.705100">
        <ele>430.841386</ele>
        <time>2021-11-07T16:20:57.991Z</time>
      </trkpt>
      <trkpt lat="47.595409" lon="7.704915">
        <ele>430.828297</ele>
        <time>2021-11-07T16:21:04.494Z</time>
      </trkpt>
      <trkpt lat="47.595305" lon="7.704858">
        <ele>430.824216</ele>
        <time>2021-11-07T16:21:06.156Z</time>
      </trkpt>
      <trkpt lat="47.594878" lon="7.704623">
        <ele>430.807452</ele>
        <time>2021-11-07T16:21:15.881Z</time>
      </trkpt>
      <trkpt lat="47.594812" lon="7.704586">
        <ele>430.804855</ele>
        <time>2021-11-07T16:21:17.391Z</time>
      </trkpt>
      <trkpt lat="47.594235" lon="7.704161">
        <ele>430.781141</ele>
        <time>2021-11-07T16:21:28.056Z</time>
      </trkpt>
      <trkpt lat="47.592647" lon="7.702455">
        <ele>420.809275</ele>
        <time>2021-11-07T16:21:46.204Z</time>
      </trkpt>
      <trkpt lat="47.592428" lon="7.702221">
        <ele>419.081541</ele>
        <time>2021-11-07T16:21:48.592Z</time>
      </trkpt>
      <trkpt lat="47.592206" lon="7.701983">
        <ele>417.328129</ele>
        <time>2021-11-07T16:21:51.053Z</time>
      </trkpt>
      <trkpt lat="47.591948" lon="7.701748">
        <ele>415.390105</ele>
        <time>2021-11-07T16:21:53.780Z</time>
      </trkpt>
      <trkpt lat="47.590412" lon="7.700787">
        <ele>405.541028</ele>
        <time>2021-11-07T16:22:09.083Z</time>
      </trkpt>
      <trkpt lat="47.590145" lon="7.700501">
        <ele>403.759419</ele>
        <time>2021-11-07T16:22:12.182Z</time>
      </trkpt>
      <trkpt lat="47.590123" lon="7.700478">
        <ele>403.613818</ele>
        <time>2021-11-07T16:22:12.431Z</time>
      </trkpt>
      <trkpt lat="47.589999" lon="7.700344">
        <ele>402.783884</ele>
        <time>2021-11-07T16:22:13.877Z</time>
      </trkpt>
      <trkpt lat="47.589647" lon="7.699969">
        <ele>400.439459</ele>
        <time>2021-11-07T16:22:17.947Z</time>
      </trkpt>
      <trkpt lat="47.589371" lon="7.699670">
        <ele>399.530650</ele>
        <time>2021-11-07T16:22:21.189Z</time>
      </trkpt>
      <trkpt lat="47.589187" lon="7.699499">
        <ele>399.004537</ele>
        <time>2021-11-07T16:22:23.300Z</time>
      </trkpt>
      <trkpt lat="47.589039" lon="7.699385">
        <ele>398.600473</ele>
        <time>2021-11-07T16:22:24.955Z</time>
      </trkpt>
      <trkpt lat="47.588888" lon="7.699285">
        <ele>398.199806</ele>
        <time>2021-11-07T16:22:26.624Z</time>
      </trkpt>
      <trkpt lat="47.588820" lon="7.699251">
        <ele>398.025944</ele>
        <time>2021-11-07T16:22:27.360Z</time>
      </trkpt>
      <trkpt lat="47.588783" lon="7.699233">
        <ele>397.931601</ele>
        <time>2021-11-07T16:22:27.767Z</time>
      </trkpt>
      <trkpt lat="47.588613" lon="7.699146">
        <ele>397.495892</ele>
        <time>2021-11-07T16:22:29.788Z</time>
      </trkpt>
      <trkpt lat="47.588335" lon="7.698996">
        <ele>396.779158</ele>
        <time>2021-11-07T16:22:33.368Z</time>
      </trkpt>
      <trkpt lat="47.588089" lon="7.698812">
        <ele>396.111621</ele>
        <time>2021-11-07T16:22:37.161Z</time>
      </trkpt>
      <trkpt lat="47.587873" lon="7.698650">
        <ele>396.407589</ele>
        <time>2021-11-07T16:22:41.203Z</time>
      </trkpt>
      <trkpt lat="47.587440" lon="7.698475">
        <ele>397.657400</ele>
        <time>2021-11-07T16:22:49.982Z</time>
      </trkpt>
      <trkpt lat="47.587113" lon="7.698428">
        <ele>398.572297</ele>
        <time>2021-11-07T16:22:58.665Z</time>
      </trkpt>
      <trkpt lat="47.586792" lon="7.698373">
        <ele>399.472164</ele>
        <time>2021-11-07T16:23:08.257Z</time>
      </trkpt>
      <trkpt lat="47.585826" lon="7.698379">
        <ele>403.482751</ele>
        <time>2021-11-07T16:23:41.075Z</time>
      </trkpt>
      <trkpt lat="47.585351" lon="7.698544">
        <ele>406.314533</ele>
        <time>2021-11-07T16:23:59.009Z</time>
      </trkpt>
      <trkpt lat="47.584998" lon="7.698675">
        <ele>408.426720</ele>
        <time>2021-11-07T16:24:12.108Z</time>
      </trkpt>
      <trkpt lat="47.584483" lon="7.698786">
        <ele>411.485418</ele>
        <time>2021-11-07T16:24:32.673Z</time>
      </trkpt>
      <trkpt lat="47.583204" lon="7.698814">
        <ele>423.404559</ele>
        <time>2021-11-07T16:25:37.706Z</time>
      </trkpt>
      <trkpt lat="47.582704" lon="7.698936">
        <ele>428.126286</ele>
        <time>2021-11-07T16:26:06.606Z</time>
      </trkpt>
      <trkpt lat="47.582483" lon="7.699048">
        <ele>430.976017</ele>
        <time>2021-11-07T16:26:21.364Z</time>
      </trkpt>
      <trkpt lat="47.581867" lon="7.699553">
        <ele>439.582037</ele>
        <time>2021-11-07T16:27:08.268Z</time>
      </trkpt>
      <trkpt lat="47.581097" lon="7.700270">
        <ele>450.627308</ele>
        <time>2021-11-07T16:28:07.777Z</time>
      </trkpt>
      <trkpt lat="47.580855" lon="7.700494">
        <ele>453.671794</ele>
        <time>2021-11-07T16:28:25.028Z</time>
      </trkpt>
      <trkpt lat="47.580164" lon="7.701066">
        <ele>462.117318</ele>
        <time>2021-11-07T16:29:11.278Z</time>
      </trkpt>
      <trkpt lat="47.579420" lon="7.701212">
        <ele>469.856610</ele>
        <time>2021-11-07T16:29:53.167Z</time>
      </trkpt>
      <trkpt lat="47.578727" lon="7.701081">
        <ele>474.793026</ele>
        <time>2021-11-07T16:30:25.626Z</time>
      </trkpt>
      <trkpt lat="47.578229" lon="7.701002">
        <ele>478.332004</ele>
        <time>2021-11-07T16:30:46.969Z</time>
      </trkpt>
      <trkpt lat="47.578079" lon="7.700973">
        <ele>479.400886</ele>
        <time>2021-11-07T16:30:52.787Z</time>
      </trkpt>
      <trkpt lat="47.577347" lon="7.700798">
        <ele>483.102116</ele>
        <time>2021-11-07T16:31:18.280Z</time>
      </trkpt>
      <trkpt lat="47.576967" lon="7.700886">
        <ele>484.213558</ele>
        <time>2021-11-07T16:31:29.734Z</time>
      </trkpt>
      <trkpt lat="47.575795" lon="7.701398">
        <ele>487.588402</ele>
        <time>2021-11-07T16:31:55.951Z</time>
      </trkpt>
      <trkpt lat="47.575365" lon="7.701553">
        <ele>488.475086</ele>
        <time>2021-11-07T16:32:05.568Z</time>
      </trkpt>
      <trkpt lat="47.575087" lon="7.701638">
        <ele>489.043831</ele>
        <time>2021-11-07T16:32:11.999Z</time>
      </trkpt>
      <trkpt lat="47.574915" lon="7.701638">
        <ele>489.388461</ele>
        <time>2021-11-07T16:32:15.820Z</time>
      </trkpt>
      <trkpt lat="47.574763" lon="7.701603">
        <ele>489.696671</ele>
        <time>2021-11-07T16:32:19.602Z</time>
      </trkpt>
      <trkpt lat="47.574305" lon="7.701458">
        <ele>490.635047</ele>
        <time>2021-11-07T16:32:30.710Z</time>
      </trkpt>
      <trkpt lat="47.572597" lon="7.700557">
        <ele>494.689309</ele>
        <time>2021-11-07T16:33:14.660Z</time>
      </trkpt>
      <trkpt lat="47.571718" lon="7.700291">
        <ele>495.612148</ele>
        <time>2021-11-07T16:33:34.634Z</time>
      </trkpt>
      <trkpt lat="47.571273" lon="7.700147">
        <ele>496.020363</ele>
        <time>2021-11-07T16:33:42.962Z</time>
      </trkpt>
      <trkpt lat="47.571068" lon="7.700068">
        <ele>496.210198</ele>
        <time>2021-11-07T16:33:46.256Z</time>
      </trkpt>
      <trkpt lat="47.570278" lon="7.699755">
        <ele>495.433525</ele>
        <time>2021-11-07T16:33:56.648Z</time>
      </trkpt>
      <trkpt lat="47.569386" lon="7.699378">
        <ele>493.440582</ele>
        <time>2021-11-07T16:34:06.645Z</time>
      </trkpt>
      <trkpt lat="47.569093" lon="7.699112">
        <ele>492.702334</ele>
        <time>2021-11-07T16:34:10.082Z</time>
      </trkpt>
      <trkpt lat="47.568602" lon="7.698487">
        <ele>489.439186</ele>
        <time>2021-11-07T16:34:16.308Z</time>
      </trkpt>
      <trkpt lat="47.567964" lon="7.697996">
        <ele>485.707614</ele>
        <time>2021-11-07T16:34:23.057Z</time>
      </trkpt>
      <trkpt lat="47.567166" lon="7.697504">
        <ele>479.817298</ele>
        <time>2021-11-07T16:34:30.906Z</time>
      </trkpt>
      <trkpt lat="47.566435" lon="7.697358">
        <ele>473.399929</ele>
        <time>2021-11-07T16:34:37.385Z</time>
      </trkpt>
      <trkpt lat="47.565744" lon="7.697318">
        <ele>467.259160</ele>
        <time>2021-11-07T16:34:43.327Z</time>
      </trkpt>
      <trkpt lat="47.565173" lon="7.697132">
        <ele>459.792916</ele>
        <time>2021-11-07T16:34:48.288Z</time>
      </trkpt>
      <trkpt lat="47.563259" lon="7.696241">
        <ele>433.881837</ele>
        <time>2021-11-07T16:35:05.068Z</time>
      </trkpt>
      <trkpt lat="47.562620" lon="7.695953">
        <ele>425.116707</ele>
        <time>2021-11-07T16:35:10.679Z</time>
      </trkpt>
      <trkpt lat="47.562128" lon="7.695702">
        <ele>418.647617</ele>
        <time>2021-11-07T16:35:15.071Z</time>
      </trkpt>
      <trkpt lat="47.561669" lon="7.695498">
        <ele>413.170326</ele>
        <time>2021-11-07T16:35:19.121Z</time>
      </trkpt>
      <trkpt lat="47.561053" lon="7.695338">
        <ele>406.022038</ele>
        <time>2021-11-07T16:35:24.444Z</time>
      </trkpt>
      <trkpt lat="47.560012" lon="7.695119">
        <ele>394.859018</ele>
        <time>2021-11-07T16:35:33.453Z</time>
      </trkpt>
      <trkpt lat="47.559078" lon="7.694904">
        <ele>385.473850</ele>
        <time>2021-11-07T16:35:41.591Z</time>
      </trkpt>
      <trkpt lat="47.558618" lon="7.694872">
        <ele>381.193571</ele>
        <time>2021-11-07T16:35:45.591Z</time>
      </trkpt>
      <trkpt lat="47.556836" lon="7.695079">
        <ele>366.492128</ele>
        <time>2021-11-07T16:36:01.348Z</time>
      </trkpt>
      <trkpt lat="47.555130" lon="7.694964">
        <ele>352.939873</ele>
        <time>2021-11-07T16:36:16.621Z</time>
      </trkpt>
      <trkpt lat="47.554864" lon="7.694875">
        <ele>349.495712</ele>
        <time>2021-11-07T16:36:18.985Z</time>
      </trkpt>
      <trkpt lat="47.554572" lon="7.694665">
        <ele>345.396310</ele>
        <time>2021-11-07T16:36:21.749Z</time>
      </trkpt>
      <trkpt lat="47.554384" lon="7.694448">
        <ele>342.386453</ele>
        <time>2021-11-07T16:36:23.779Z</time>
      </trkpt>
      <trkpt lat="47.554245" lon="7.694182">
        <ele>339.518896</ele>
        <time>2021-11-07T16:36:25.688Z</time>
      </trkpt>
      <trkpt lat="47.554028" lon="7.693827">
        <ele>335.436246</ele>
        <time>2021-11-07T16:36:28.363Z</time>
      </trkpt>
      <trkpt lat="47.553606" lon="7.693126">
        <ele>326.163032</ele>
        <time>2021-11-07T16:36:33.588Z</time>
      </trkpt>
      <trkpt lat="47.553281" lon="7.692750">
        <ele>319.190799</ele>
        <time>2021-11-07T16:36:36.996Z</time>
      </trkpt>
      <trkpt lat="47.553101" lon="7.692582">
        <ele>315.593647</ele>
        <time>2021-11-07T16:36:38.749Z</time>
      </trkpt>
      <trkpt lat="47.553059" lon="7.692566">
        <ele>314.860367</ele>
        <time>2021-11-07T16:36:39.104Z</time>
      </trkpt>
      <trkpt lat="47.552195" lon="7.692398">
        <ele>300.366146</ele>
        <time>2021-11-07T16:36:46.292Z</time>
      </trkpt>
      <trkpt lat="47.551995" lon="7.692291">
        <ele>298.148583</ele>
        <time>2021-11-07T16:36:48.046Z</time>
      </trkpt>
      <trkpt lat="47.551619" lon="7.692088">
        <ele>293.975146</ele>
        <time>2021-11-07T16:36:51.395Z</time>
      </trkpt>
      <trkpt lat="47.551568" lon="7.692024">
        <ele>293.278144</ele>
        <time>2021-11-07T16:36:51.980Z</time>
      </trkpt>
      <trkpt lat="47.551434" lon="7.691862">
        <ele>291.474512</ele>
        <time>2021-11-07T16:36:53.480Z</time>
      </trkpt>
      <trkpt lat="47.551182" lon="7.691473">
        <ele>287.679304</ele>
        <time>2021-11-07T16:36:56.693Z</time>
      </trkpt>
      <trkpt lat="47.551000" lon="7.691170">
        <ele>284.824289</ele>
        <time>2021-11-07T16:36:59.127Z</time>
      </trkpt>
      <trkpt lat="47.550764" lon="7.690746">
        <ele>281.624059</ele>
        <time>2021-11-07T16:37:02.461Z</time>
      </trkpt>
      <trkpt lat="47.550476" lon="7.690324">
        <ele>280.114617</ele>
        <time>2021-11-07T16:37:06.260Z</time>
      </trkpt>
      <trkpt lat="47.550112" lon="7.690714">
        <ele>278.440646</ele>
        <time>2021-11-07T16:37:10.826Z</time>
      </trkpt>
      <trkpt lat="47.549742" lon="7.690347">
        <ele>276.781367</ele>
        <time>2021-11-07T16:37:17.376Z</time>
      </trkpt>
      <trkpt lat="47.549136" lon="7.690015">
        <ele>274.871428</ele>
        <time>2021-11-07T16:37:27.594Z</time>
      </trkpt>
      <trkpt lat="47.548667" lon="7.689518">
        <ele>273.886259</ele>
        <time>2021-11-07T16:37:36.900Z</time>
      </trkpt>
      <trkpt lat="47.548501" lon="7.689334">
        <ele>273.532054</ele>
        <time>2021-11-07T16:37:40.277Z</time>
      </trkpt>
      <trkpt lat="47.547867" lon="7.688647">
        <ele>272.193406</ele>
        <time>2021-11-07T16:37:53.198Z</time>
      </trkpt>
      <trkpt lat="47.547509" lon="7.688248">
        <ele>271.514315</ele>
        <time>2021-11-07T16:38:00.473Z</time>
      </trkpt>
      <trkpt lat="47.547023" lon="7.687611">
        <ele>270.530680</ele>
        <time>2021-11-07T16:38:11.249Z</time>
      </trkpt>
      <trkpt lat="47.546968" lon="7.687539">
        <ele>270.419423</ele>
        <time>2021-11-07T16:38:12.477Z</time>
      </trkpt>
      <trkpt lat="47.546902" lon="7.687447">
        <ele>270.282053</ele>
        <time>2021-11-07T16:38:13.986Z</time>
      </trkpt>
      <trkpt lat="47.546848" lon="7.687376">
        <ele>270.172609</ele>
        <time>2021-11-07T16:38:15.175Z</time>
      </trkpt>
      <trkpt lat="47.546768" lon="7.687264">
        <ele>270.005760</ele>
        <time>2021-11-07T16:38:16.416Z</time>
      </trkpt>
      <trkpt lat="47.546697" lon="7.687151">
        <ele>269.847799</ele>
        <time>2021-11-07T16:38:17.615Z</time>
      </trkpt>
      <trkpt lat="47.546450" lon="7.686762">
        <ele>269.337021</ele>
        <time>2021-11-07T16:38:21.757Z</time>
      </trkpt>
      <trkpt lat="47.546331" lon="7.686575">
        <ele>269.122916</ele>
        <time>2021-11-07T16:38:23.756Z</time>
      </trkpt>
      <trkpt lat="47.546327" lon="7.686568">
        <ele>269.115276</ele>
        <time>2021-11-07T16:38:23.810Z</time>
      </trkpt>
      <trkpt lat="47.546115" lon="7.686339">
        <ele>268.791457</ele>
        <time>2021-11-07T16:38:26.848Z</time>
      </trkpt>
      <trkpt lat="47.545964" lon="7.686248">
        <ele>268.590261</ele>
        <time>2021-11-07T16:38:28.679Z</time>
      </trkpt>
      <trkpt lat="47.545866" lon="7.686192">
        <ele>268.460622</ele>
        <time>2021-11-07T16:38:29.888Z</time>
      </trkpt>
      <trkpt lat="47.545764" lon="7.686131">
        <ele>268.324862</ele>
        <time>2021-11-07T16:38:31.141Z</time>
      </trkpt>
      <trkpt lat="47.545630" lon="7.686051">
        <ele>268.146553</ele>
        <time>2021-11-07T16:38:32.740Z</time>
      </trkpt>
      <trkpt lat="47.545503" lon="7.685946">
        <ele>267.967051</ele>
        <time>2021-11-07T16:38:34.516Z</time>
      </trkpt>
      <trkpt lat="47.545434" lon="7.685860">
        <ele>267.855760</ele>
        <time>2021-11-07T16:38:35.601Z</time>
      </trkpt>
      <trkpt lat="47.545233" lon="7.685607">
        <ele>267.530233</ele>
        <time>2021-11-07T16:38:38.848Z</time>
      </trkpt>
      <trkpt lat="47.544872" lon="7.685095">
        <ele>267.274333</ele>
        <time>2021-11-07T16:38:45.458Z</time>
      </trkpt>
      <trkpt lat="47.544743" lon="7.684948">
        <ele>267.274832</ele>
        <time>2021-11-07T16:38:47.784Z</time>
      </trkpt>
      <trkpt lat="47.544438" lon="7.684734">
        <ele>267.275866</ele>
        <time>2021-11-07T16:38:53.177Z</time>
      </trkpt>
      <trkpt lat="47.544434" lon="7.684888">
        <ele>267.276185</ele>
        <time>2021-11-07T16:38:55.103Z</time>
      </trkpt>
      <trkpt lat="47.544310" lon="7.686004">
        <ele>267.278525</ele>
        <time>2021-11-07T16:39:06.927Z</time>
      </trkpt>
      <trkpt lat="47.544128" lon="7.687068">
        <ele>267.225421</ele>
        <time>2021-11-07T16:39:17.965Z</time>
      </trkpt>
      <trkpt lat="47.544057" lon="7.687517">
        <ele>267.197727</ele>
        <time>2021-11-07T16:39:22.601Z</time>
      </trkpt>
      <trkpt lat="47.543979" lon="7.687928">
        <ele>267.172088</ele>
        <time>2021-11-07T16:39:26.785Z</time>
      </trkpt>
      <trkpt lat="47.543887" lon="7.688428">
        <ele>267.140966</ele>
        <time>2021-11-07T16:39:31.809Z</time>
      </trkpt>
      <trkpt lat="47.543849" lon="7.688664">
        <ele>267.126395</ele>
        <time>2021-11-07T16:39:34.245Z</time>
      </trkpt>
      <trkpt lat="47.543756" lon="7.689554">
        <ele>267.194248</ele>
        <time>2021-11-07T16:39:42.205Z</time>
      </trkpt>
      <trkpt lat="47.543747" lon="7.689674">
        <ele>267.205961</ele>
        <time>2021-11-07T16:39:43.521Z</time>
      </trkpt>
      <trkpt lat="47.543719" lon="7.690293">
        <ele>267.266144</ele>
        <time>2021-11-07T16:39:49.896Z</time>
      </trkpt>
      <trkpt lat="47.543718" lon="7.690373">
        <ele>267.273906</ele>
        <time>2021-11-07T16:39:50.742Z</time>
      </trkpt>
      <trkpt lat="47.543695" lon="7.691028">
        <ele>267.337533</ele>
        <time>2021-11-07T16:39:58.257Z</time>
      </trkpt>
      <trkpt lat="47.543669" lon="7.691801">
        <ele>267.419460</ele>
        <time>2021-11-07T16:40:07.458Z</time>
      </trkpt>
      <trkpt lat="47.543652" lon="7.692147">
        <ele>267.459660</ele>
        <time>2021-11-07T16:40:11.035Z</time>
      </trkpt>
      <trkpt lat="47.543627" lon="7.692460">
        <ele>267.496184</ele>
        <time>2021-11-07T16:40:14.623Z</time>
      </trkpt>
      <trkpt lat="47.543515" lon="7.693372">
        <ele>267.603600</ele>
        <time>2021-11-07T16:40:24.280Z</time>
      </trkpt>
      <trkpt lat="47.543315" lon="7.694525">
        <ele>267.605829</ele>
        <time>2021-11-07T16:40:35.852Z</time>
      </trkpt>
      <trkpt lat="47.543147" lon="7.695557">
        <ele>267.427288</ele>
        <time>2021-11-07T16:40:45.131Z</time>
      </trkpt>
      <trkpt lat="47.542960" lon="7.696989">
        <ele>267.310791</ele>
        <time>2021-11-07T16:40:59.269Z</time>
      </trkpt>
      <trkpt lat="47.542902" lon="7.697537">
        <ele>267.431802</ele>
        <time>2021-11-07T16:41:05.265Z</time>
      </trkpt>
      <trkpt lat="47.542740" lon="7.698914">
        <ele>267.736734</ele>
        <time>2021-11-07T16:41:21.015Z</time>
      </trkpt>
      <trkpt lat="47.542682" lon="7.699476">
        <ele>267.852026</ele>
        <time>2021-11-07T16:41:27.502Z</time>
      </trkpt>
      <trkpt lat="47.542651" lon="7.699916">
        <ele>267.928180</ele>
        <time>2021-11-07T16:41:32.503Z</time>
      </trkpt>
      <trkpt lat="47.542660" lon="7.700609">
        <ele>268.047497</ele>
        <time>2021-11-07T16:41:40.226Z</time>
      </trkpt>
      <trkpt lat="47.542766" lon="7.702209">
        <ele>268.277599</ele>
        <time>2021-11-07T16:41:56.627Z</time>
      </trkpt>
      <trkpt lat="47.542785" lon="7.702499">
        <ele>268.277152</ele>
        <time>2021-11-07T16:41:59.523Z</time>
      </trkpt>
      <trkpt lat="47.542833" lon="7.702609">
        <ele>268.276951</ele>
        <time>2021-11-07T16:42:00.766Z</time>
      </trkpt>
      <trkpt lat="47.542922" lon="7.702619">
        <ele>268.276748</ele>
        <time>2021-11-07T16:42:02.178Z</time>
      </trkpt>
      <trkpt lat="47.542979" lon="7.703226">
        <ele>268.275807</ele>
        <time>2021-11-07T16:42:08.538Z</time>
      </trkpt>
      <trkpt lat="47.543027" lon="7.703651">
        <ele>268.275145</ele>
        <time>2021-11-07T16:42:12.796Z</time>
      </trkpt>
      <trkpt lat="47.543146" lon="7.704707">
        <ele>268.188208</ele>
        <time>2021-11-07T16:42:23.187Z</time>
      </trkpt>
      <trkpt lat="47.543153" lon="7.704762">
        <ele>268.170636</ele>
        <time>2021-11-07T16:42:23.717Z</time>
      </trkpt>
      <trkpt lat="47.543166" lon="7.704863">
        <ele>268.138355</ele>
        <time>2021-11-07T16:42:24.647Z</time>
      </trkpt>
      <trkpt lat="47.543179" lon="7.704985">
        <ele>268.099578</ele>
        <time>2021-11-07T16:42:26.258Z</time>
      </trkpt>
      <trkpt lat="47.543192" lon="7.705107">
        <ele>268.060801</ele>
        <time>2021-11-07T16:42:27.856Z</time>
      </trkpt>
      <trkpt lat="47.543280" lon="7.705893">
        <ele>267.810662</ele>
        <time>2021-11-07T16:42:35.037Z</time>
      </trkpt>
      <trkpt lat="47.543360" lon="7.706664">
        <ele>267.565760</ele>
        <time>2021-11-07T16:42:42.097Z</time>
      </trkpt>
      <trkpt lat="47.543343" lon="7.707367">
        <ele>267.215978</ele>
        <time>2021-11-07T16:42:48.315Z</time>
      </trkpt>
      <trkpt lat="47.543080" lon="7.709103">
        <ele>265.878579</ele>
        <time>2021-11-07T16:43:02.724Z</time>
      </trkpt>
      <trkpt lat="47.542885" lon="7.709631">
        <ele>265.420898</ele>
        <time>2021-11-07T16:43:07.456Z</time>
      </trkpt>
      <trkpt lat="47.542797" lon="7.709757">
        <ele>265.198241</ele>
        <time>2021-11-07T16:43:08.999Z</time>
      </trkpt>
      <trkpt lat="47.542709" lon="7.709872">
        <ele>264.984751</ele>
        <time>2021-11-07T16:43:10.198Z</time>
      </trkpt>
      <trkpt lat="47.542475" lon="7.710074">
        <ele>264.492028</ele>
        <time>2021-11-07T16:43:13.405Z</time>
      </trkpt>
      <trkpt lat="47.542472" lon="7.710076">
        <ele>264.486043</ele>
        <time>2021-11-07T16:43:13.436Z</time>
      </trkpt>
      <trkpt lat="47.541664" lon="7.710413">
        <ele>262.958896</ele>
        <time>2021-11-07T16:43:22.590Z</time>
      </trkpt>
      <trkpt lat="47.540969" lon="7.710460">
        <ele>261.863678</ele>
        <time>2021-11-07T16:43:30.296Z</time>
      </trkpt>
      <trkpt lat="47.540498" lon="7.710323">
        <ele>261.307883</ele>
        <time>2021-11-07T16:43:35.933Z</time>
      </trkpt>
      <trkpt lat="47.540428" lon="7.710280">
        <ele>261.220135</ele>
        <time>2021-11-07T16:43:36.767Z</time>
      </trkpt>
      <trkpt lat="47.540229" lon="7.710170">
        <ele>260.974189</ele>
        <time>2021-11-07T16:43:39.397Z</time>
      </trkpt>
      <trkpt lat="47.539646" lon="7.709593">
        <ele>260.162310</ele>
        <time>2021-11-07T16:43:48.185Z</time>
      </trkpt>
      <trkpt lat="47.539021" lon="7.708561">
        <ele>259.837248</ele>
        <time>2021-11-07T16:44:00.985Z</time>
      </trkpt>
      <trkpt lat="47.538687" lon="7.707698">
        <ele>259.649038</ele>
        <time>2021-11-07T16:44:10.662Z</time>
      </trkpt>
      <trkpt lat="47.538663" lon="7.707476">
        <ele>259.606500</ele>
        <time>2021-11-07T16:44:12.841Z</time>
      </trkpt>
      <trkpt lat="47.538403" lon="7.706790">
        <ele>259.522611</ele>
        <time>2021-11-07T16:44:20.111Z</time>
      </trkpt>
      <trkpt lat="47.538239" lon="7.706913">
        <ele>259.499508</ele>
        <time>2021-11-07T16:44:22.627Z</time>
      </trkpt>
      <trkpt lat="47.536551" lon="7.708325">
        <ele>260.378816</ele>
        <time>2021-11-07T16:45:01.446Z</time>
      </trkpt>
      <trkpt lat="47.536506" lon="7.708376">
        <ele>260.457217</ele>
        <time>2021-11-07T16:45:03.004Z</time>
      </trkpt>
      <trkpt lat="47.536244" lon="7.708596">
        <ele>260.873943</ele>
        <time>2021-11-07T16:45:10.814Z</time>
      </trkpt>
      <trkpt lat="47.536866" lon="7.710249">
        <ele>263.795584</ele>
        <time>2021-11-07T16:45:50.825Z</time>
      </trkpt>
      <trkpt lat="47.536866" lon="7.710249">
        <ele>263.795584</ele>
        <time>2021-11-07T16:45:50.935Z</time>
      </trkpt>
      <trkpt lat="47.536866" lon="7.710249">
        <ele>263.795584</ele>
        <time>2021-11-07T16:45:50.959Z</time>
      </trkpt>
      <trkpt lat="47.536866" lon="7.710249">
        <ele>263.795584</ele>
        <time>2021-11-07T16:45:50.959Z</time>
      </trkpt>
      <trkpt lat="47.536396" lon="7.710758">
        <ele>265.757891</ele>
        <time>2021-11-07T16:46:01.755Z</time>
      </trkpt>
      <trkpt lat="47.535925" lon="7.711267">
        <ele>267.722926</ele>
        <time>2021-11-07T16:46:12.567Z</time>
      </trkpt>
      <trkpt lat="47.535735" lon="7.711449">
        <ele>268.173835</ele>
        <time>2021-11-07T16:46:19.424Z</time>
      </trkpt>
      <trkpt lat="47.535375" lon="7.711551">
        <ele>268.751327</ele>
        <time>2021-11-07T16:46:31.357Z</time>
      </trkpt>
      <trkpt lat="47.534965" lon="7.711682">
        <ele>269.412172</ele>
        <time>2021-11-07T16:46:42.907Z</time>
      </trkpt>
      <trkpt lat="47.535045" lon="7.712277">
        <ele>270.057523</ele>
        <time>2021-11-07T16:46:50.533Z</time>
      </trkpt>
      <trkpt lat="47.535067" lon="7.712436">
        <ele>270.230172</ele>
        <time>2021-11-07T16:46:52.375Z</time>
      </trkpt>
      <trkpt lat="47.535110" lon="7.712748">
        <ele>270.568901</ele>
        <time>2021-11-07T16:46:55.619Z</time>
      </trkpt>
      <trkpt lat="47.535128" lon="7.712889">
        <ele>270.721545</ele>
        <time>2021-11-07T16:46:57.045Z</time>
      </trkpt>
      <trkpt lat="47.535174" lon="7.713262">
        <ele>270.462404</ele>
        <time>2021-11-07T16:47:00.703Z</time>
      </trkpt>
      <trkpt lat="47.535202" lon="7.713540">
        <ele>270.254522</ele>
        <time>2021-11-07T16:47:03.316Z</time>
      </trkpt>
      <trkpt lat="47.535222" lon="7.713738">
        <ele>270.106454</ele>
        <time>2021-11-07T16:47:05.028Z</time>
      </trkpt>
      <trkpt lat="47.535269" lon="7.714432">
        <ele>269.590603</ele>
        <time>2021-11-07T16:47:10.569Z</time>
      </trkpt>
      <trkpt lat="47.535269" lon="7.714705">
        <ele>269.388695</ele>
        <time>2021-11-07T16:47:12.749Z</time>
      </trkpt>
      <trkpt lat="47.535269" lon="7.714924">
        <ele>269.226725</ele>
        <time>2021-11-07T16:47:14.397Z</time>
      </trkpt>
      <trkpt lat="47.535254" lon="7.715336">
        <ele>268.921571</ele>
        <time>2021-11-07T16:47:17.511Z</time>
      </trkpt>
      <trkpt lat="47.535313" lon="7.716133">
        <ele>268.693643</ele>
        <time>2021-11-07T16:47:23.414Z</time>
      </trkpt>
      <trkpt lat="47.535347" lon="7.716584">
        <ele>268.639571</ele>
        <time>2021-11-07T16:47:26.747Z</time>
      </trkpt>
      <trkpt lat="47.535370" lon="7.716931">
        <ele>268.598027</ele>
        <time>2021-11-07T16:47:30.110Z</time>
      </trkpt>
      <trkpt lat="47.535384" lon="7.717243">
        <ele>268.560769</ele>
        <time>2021-11-07T16:47:33.106Z</time>
      </trkpt>
      <trkpt lat="47.535419" lon="7.717562">
        <ele>268.522261</ele>
        <time>2021-11-07T16:47:37.322Z</time>
      </trkpt>
      <trkpt lat="47.535490" lon="7.718086">
        <ele>268.458580</ele>
        <time>2021-11-07T16:47:45.318Z</time>
      </trkpt>
      <trkpt lat="47.535494" lon="7.718111">
        <ele>268.455519</ele>
        <time>2021-11-07T16:47:45.489Z</time>
      </trkpt>
      <trkpt lat="47.535516" lon="7.718273">
        <ele>268.591550</ele>
        <time>2021-11-07T16:47:48.371Z</time>
      </trkpt>
      <trkpt lat="47.535558" lon="7.718578">
        <ele>269.105325</ele>
        <time>2021-11-07T16:47:53.527Z</time>
      </trkpt>
      <trkpt lat="47.535572" lon="7.718705">
        <ele>269.317717</ele>
        <time>2021-11-07T16:47:55.111Z</time>
      </trkpt>
      <trkpt lat="47.535608" lon="7.718948">
        <ele>269.728337</ele>
        <time>2021-11-07T16:47:59.702Z</time>
      </trkpt>
      <trkpt lat="47.535661" lon="7.719317">
        <ele>270.351009</ele>
        <time>2021-11-07T16:48:05.662Z</time>
      </trkpt>
      <trkpt lat="47.535713" lon="7.719682">
        <ele>270.966716</ele>
        <time>2021-11-07T16:48:11.615Z</time>
      </trkpt>
      <trkpt lat="47.535746" lon="7.719899">
        <ele>271.333852</ele>
        <time>2021-11-07T16:48:15.621Z</time>
      </trkpt>
      <trkpt lat="47.535806" lon="7.720212">
        <ele>271.870884</ele>
        <time>2021-11-07T16:48:21.188Z</time>
      </trkpt>
      <trkpt lat="47.535876" lon="7.720409">
        <ele>272.238320</ele>
        <time>2021-11-07T16:48:25.323Z</time>
      </trkpt>
      <trkpt lat="47.535897" lon="7.720461">
        <ele>272.338330</ele>
        <time>2021-11-07T16:48:26.492Z</time>
      </trkpt>
      <trkpt lat="47.535988" lon="7.720671">
        <ele>272.750192</ele>
        <time>2021-11-07T16:48:31.145Z</time>
      </trkpt>
      <trkpt lat="47.536092" lon="7.720862">
        <ele>273.149984</ele>
        <time>2021-11-07T16:48:35.837Z</time>
      </trkpt>
      <trkpt lat="47.536471" lon="7.721389">
        <ele>274.399606</ele>
        <time>2021-11-07T16:48:49.367Z</time>
      </trkpt>
      <trkpt lat="47.536590" lon="7.721558">
        <ele>274.795910</ele>
        <time>2021-11-07T16:48:52.739Z</time>
      </trkpt>
      <trkpt lat="47.536667" lon="7.721718">
        <ele>275.114795</ele>
        <time>2021-11-07T16:48:55.502Z</time>
      </trkpt>
      <trkpt lat="47.536854" lon="7.722329">
        <ele>276.203526</ele>
        <time>2021-11-07T16:49:05.255Z</time>
      </trkpt>
      <trkpt lat="47.537075" lon="7.723694">
        <ele>279.122660</ele>
        <time>2021-11-07T16:49:29.406Z</time>
      </trkpt>
      <trkpt lat="47.537106" lon="7.723875">
        <ele>279.573522</ele>
        <time>2021-11-07T16:49:33.285Z</time>
      </trkpt>
      <trkpt lat="47.537127" lon="7.723974">
        <ele>279.824075</ele>
        <time>2021-11-07T16:49:35.479Z</time>
      </trkpt>
      <trkpt lat="47.537323" lon="7.724748">
        <ele>281.820003</ele>
        <time>2021-11-07T16:49:52.818Z</time>
      </trkpt>
      <trkpt lat="47.537675" lon="7.726458">
        <ele>285.581964</ele>
        <time>2021-11-07T16:50:30.531Z</time>
      </trkpt>
      <trkpt lat="47.537824" lon="7.727674">
        <ele>287.913684</ele>
        <time>2021-11-07T16:50:50.620Z</time>
      </trkpt>
      <trkpt lat="47.537861" lon="7.727909">
        <ele>288.368957</ele>
        <time>2021-11-07T16:50:54.083Z</time>
      </trkpt>
      <trkpt lat="47.537932" lon="7.727936">
        <ele>288.573815</ele>
        <time>2021-11-07T16:50:56.060Z</time>
      </trkpt>
      <trkpt lat="47.538038" lon="7.728623">
        <ele>288.864452</ele>
        <time>2021-11-07T16:51:07.882Z</time>
      </trkpt>
      <trkpt lat="47.538083" lon="7.728919">
        <ele>288.971111</ele>
        <time>2021-11-07T16:51:12.584Z</time>
      </trkpt>
      <trkpt lat="47.538123" lon="7.729100">
        <ele>289.038060</ele>
        <time>2021-11-07T16:51:15.526Z</time>
      </trkpt>
      <trkpt lat="47.538148" lon="7.729131">
        <ele>289.055037</ele>
        <time>2021-11-07T16:51:16.262Z</time>
      </trkpt>
      <trkpt lat="47.538168" lon="7.729263">
        <ele>289.102593</ele>
        <time>2021-11-07T16:51:18.318Z</time>
      </trkpt>
      <trkpt lat="47.538248" lon="7.729713">
        <ele>289.266175</ele>
        <time>2021-11-07T16:51:24.982Z</time>
      </trkpt>
      <trkpt lat="47.538275" lon="7.729744">
        <ele>289.283963</ele>
        <time>2021-11-07T16:51:25.738Z</time>
      </trkpt>
      <trkpt lat="47.538339" lon="7.730082">
        <ele>289.407364</ele>
        <time>2021-11-07T16:51:30.466Z</time>
      </trkpt>
      <trkpt lat="47.538512" lon="7.730958">
        <ele>289.326211</ele>
        <time>2021-11-07T16:51:42.127Z</time>
      </trkpt>
      <trkpt lat="47.538887" lon="7.732454">
        <ele>288.521222</ele>
        <time>2021-11-07T16:52:01.132Z</time>
      </trkpt>
      <trkpt lat="47.539178" lon="7.733656">
        <ele>287.931469</ele>
        <time>2021-11-07T16:52:16.201Z</time>
      </trkpt>
      <trkpt lat="47.539263" lon="7.733885">
        <ele>287.820606</ele>
        <time>2021-11-07T16:52:19.319Z</time>
      </trkpt>
      <trkpt lat="47.539305" lon="7.734151">
        <ele>287.704717</ele>
        <time>2021-11-07T16:52:22.544Z</time>
      </trkpt>
      <trkpt lat="47.540032" lon="7.737141">
        <ele>287.303695</ele>
        <time>2021-11-07T16:53:02.937Z</time>
      </trkpt>
      <trkpt lat="47.540224" lon="7.738258">
        <ele>287.590404</ele>
        <time>2021-11-07T16:53:22.836Z</time>
      </trkpt>
      <trkpt lat="47.540388" lon="7.739213">
        <ele>288.370938</ele>
        <time>2021-11-07T16:53:38.975Z</time>
      </trkpt>
      <trkpt lat="47.540394" lon="7.739259">
        <ele>288.408048</ele>
        <time>2021-11-07T16:53:40.642Z</time>
      </trkpt>
      <trkpt lat="47.540387" lon="7.739372">
        <ele>288.497930</ele>
        <time>2021-11-07T16:53:42.498Z</time>
      </trkpt>
      <trkpt lat="47.540372" lon="7.739490">
        <ele>288.593038</ele>
        <time>2021-11-07T16:53:44.322Z</time>
      </trkpt>
      <trkpt lat="47.540374" lon="7.739620">
        <ele>288.696036</ele>
        <time>2021-11-07T16:53:46.391Z</time>
      </trkpt>
      <trkpt lat="47.540438" lon="7.740453">
        <ele>289.360103</ele>
        <time>2021-11-07T16:54:00.907Z</time>
      </trkpt>
      <trkpt lat="47.540552" lon="7.742240">
        <ele>290.016969</ele>
        <time>2021-11-07T16:54:28.829Z</time>
      </trkpt>
      <trkpt lat="47.540589" lon="7.742558">
        <ele>290.116289</ele>
        <time>2021-11-07T16:54:33.364Z</time>
      </trkpt>
      <trkpt lat="47.540617" lon="7.742875">
        <ele>290.214690</ele>
        <time>2021-11-07T16:54:37.743Z</time>
      </trkpt>
      <trkpt lat="47.540738" lon="7.743641">
        <ele>290.339469</ele>
        <time>2021-11-07T16:54:48.264Z</time>
      </trkpt>
      <trkpt lat="47.540913" lon="7.744421">
        <ele>290.312126</ele>
        <time>2021-11-07T16:54:58.945Z</time>
      </trkpt>
      <trkpt lat="47.541019" lon="7.744859">
        <ele>290.296648</ele>
        <time>2021-11-07T16:55:05.109Z</time>
      </trkpt>
      <trkpt lat="47.541038" lon="7.744940">
        <ele>290.293795</ele>
        <time>2021-11-07T16:55:06.223Z</time>
      </trkpt>
      <trkpt lat="47.541130" lon="7.745083">
        <ele>290.287224</ele>
        <time>2021-11-07T16:55:09.301Z</time>
      </trkpt>
      <trkpt lat="47.541148" lon="7.745144">
        <ele>290.285009</ele>
        <time>2021-11-07T16:55:10.203Z</time>
      </trkpt>
      <trkpt lat="47.541160" lon="7.745250">
        <ele>290.281434</ele>
        <time>2021-11-07T16:55:11.608Z</time>
      </trkpt>
      <trkpt lat="47.541167" lon="7.745463">
        <ele>290.274340</ele>
        <time>2021-11-07T16:55:14.596Z</time>
      </trkpt>
      <trkpt lat="47.541432" lon="7.746552">
        <ele>290.237667</ele>
        <time>2021-11-07T16:55:30.371Z</time>
      </trkpt>
      <trkpt lat="47.541511" lon="7.746885">
        <ele>290.226740</ele>
        <time>2021-11-07T16:55:34.935Z</time>
      </trkpt>
      <trkpt lat="47.541583" lon="7.747186">
        <ele>290.216854</ele>
        <time>2021-11-07T16:55:39.190Z</time>
      </trkpt>
      <trkpt lat="47.541758" lon="7.747784">
        <ele>290.196676</ele>
        <time>2021-11-07T16:55:47.811Z</time>
      </trkpt>
      <trkpt lat="47.542132" lon="7.748742">
        <ele>290.133767</ele>
        <time>2021-11-07T16:56:03.301Z</time>
      </trkpt>
      <trkpt lat="47.542347" lon="7.749227">
        <ele>290.086195</ele>
        <time>2021-11-07T16:56:11.609Z</time>
      </trkpt>
      <trkpt lat="47.542390" lon="7.749307">
        <ele>290.077811</ele>
        <time>2021-11-07T16:56:12.875Z</time>
      </trkpt>
      <trkpt lat="47.542614" lon="7.749755">
        <ele>290.032103</ele>
        <time>2021-11-07T16:56:18.253Z</time>
      </trkpt>
      <trkpt lat="47.543033" lon="7.750614">
        <ele>289.863828</ele>
        <time>2021-11-07T16:56:28.062Z</time>
      </trkpt>
      <trkpt lat="47.543115" lon="7.750826">
        <ele>289.742720</ele>
        <time>2021-11-07T16:56:30.363Z</time>
      </trkpt>
      <trkpt lat="47.543222" lon="7.751091">
        <ele>289.589665</ele>
        <time>2021-11-07T16:56:34.179Z</time>
      </trkpt>
      <trkpt lat="47.543249" lon="7.751165">
        <ele>289.547970</ele>
        <time>2021-11-07T16:56:34.949Z</time>
      </trkpt>
      <trkpt lat="47.543319" lon="7.751355">
        <ele>289.440681</ele>
        <time>2021-11-07T16:56:36.968Z</time>
      </trkpt>
      <trkpt lat="47.543798" lon="7.753068">
        <ele>288.327778</ele>
        <time>2021-11-07T16:56:52.450Z</time>
      </trkpt>
      <trkpt lat="47.544022" lon="7.753705">
        <ele>287.391722</ele>
        <time>2021-11-07T16:56:58.147Z</time>
      </trkpt>
      <trkpt lat="47.545021" lon="7.756243">
        <ele>282.527486</ele>
        <time>2021-11-07T16:57:19.252Z</time>
      </trkpt>
      <trkpt lat="47.545260" lon="7.756637">
        <ele>281.391878</ele>
        <time>2021-11-07T16:57:22.744Z</time>
      </trkpt>
      <trkpt lat="47.545304" lon="7.756852">
        <ele>280.910244</ele>
        <time>2021-11-07T16:57:24.193Z</time>
      </trkpt>
      <trkpt lat="47.545326" lon="7.756949">
        <ele>280.690871</ele>
        <time>2021-11-07T16:57:25.203Z</time>
      </trkpt>
      <trkpt lat="47.545360" lon="7.757065">
        <ele>280.419759</ele>
        <time>2021-11-07T16:57:26.463Z</time>
      </trkpt>
      <trkpt lat="47.545429" lon="7.757231">
        <ele>280.001829</ele>
        <time>2021-11-07T16:57:27.704Z</time>
      </trkpt>
      <trkpt lat="47.545677" lon="7.757815">
        <ele>278.762017</ele>
        <time>2021-11-07T16:57:32.368Z</time>
      </trkpt>
      <trkpt lat="47.545911" lon="7.758393">
        <ele>277.687756</ele>
        <time>2021-11-07T16:57:36.991Z</time>
      </trkpt>
      <trkpt lat="47.546264" lon="7.759224">
        <ele>276.122790</ele>
        <time>2021-11-07T16:57:44.016Z</time>
      </trkpt>
      <trkpt lat="47.546312" lon="7.759326">
        <ele>275.924605</ele>
        <time>2021-11-07T16:57:45.010Z</time>
      </trkpt>
      <trkpt lat="47.546552" lon="7.759727">
        <ele>275.249443</ele>
        <time>2021-11-07T16:57:49.647Z</time>
      </trkpt>
      <trkpt lat="47.546804" lon="7.760164">
        <ele>275.520878</ele>
        <time>2021-11-07T16:57:55.185Z</time>
      </trkpt>
      <trkpt lat="47.546870" lon="7.760301">
        <ele>275.600366</ele>
        <time>2021-11-07T16:57:57.186Z</time>
      </trkpt>
      <trkpt lat="47.546948" lon="7.760482">
        <ele>275.701779</ele>
        <time>2021-11-07T16:57:59.647Z</time>
      </trkpt>
      <trkpt lat="47.546989" lon="7.760612">
        <ele>275.769543</ele>
        <time>2021-11-07T16:58:01.342Z</time>
      </trkpt>
      <trkpt lat="47.547194" lon="7.761352">
        <ele>276.147299</ele>
        <time>2021-11-07T16:58:11.864Z</time>
      </trkpt>
      <trkpt lat="47.547577" lon="7.762307">
        <ele>276.932040</ele>
        <time>2021-11-07T16:58:27.905Z</time>
      </trkpt>
      <trkpt lat="47.547778" lon="7.762713">
        <ele>277.471611</ele>
        <time>2021-11-07T16:58:35.461Z</time>
      </trkpt>
      <trkpt lat="47.547848" lon="7.762928">
        <ele>277.727416</ele>
        <time>2021-11-07T16:58:38.995Z</time>
      </trkpt>
      <trkpt lat="47.547909" lon="7.763208">
        <ele>278.042716</ele>
        <time>2021-11-07T16:58:43.674Z</time>
      </trkpt>
      <trkpt lat="47.548565" lon="7.765680">
        <ele>279.857064</ele>
        <time>2021-11-07T16:59:20.260Z</time>
      </trkpt>
      <trkpt lat="47.548990" lon="7.767248">
        <ele>279.920784</ele>
        <time>2021-11-07T16:59:35.617Z</time>
      </trkpt>
      <trkpt lat="47.549184" lon="7.768021">
        <ele>279.283632</ele>
        <time>2021-11-07T16:59:42.000Z</time>
      </trkpt>
      <trkpt lat="47.549363" lon="7.768846">
        <ele>278.614134</ele>
        <time>2021-11-07T16:59:48.663Z</time>
      </trkpt>
      <trkpt lat="47.549678" lon="7.770148">
        <ele>277.840649</ele>
        <time>2021-11-07T17:00:00.247Z</time>
      </trkpt>
      <trkpt lat="47.549714" lon="7.770276">
        <ele>277.779166</ele>
        <time>2021-11-07T17:00:01.375Z</time>
      </trkpt>
      <trkpt lat="47.549845" lon="7.770734">
        <ele>277.558617</ele>
        <time>2021-11-07T17:00:05.753Z</time>
      </trkpt>
      <trkpt lat="47.550069" lon="7.771373">
        <ele>277.239366</ele>
        <time>2021-11-07T17:00:12.202Z</time>
      </trkpt>
      <trkpt lat="47.550199" lon="7.772076">
        <ele>276.968614</ele>
        <time>2021-11-07T17:00:19.039Z</time>
      </trkpt>
      <trkpt lat="47.550203" lon="7.772543">
        <ele>276.838895</ele>
        <time>2021-11-07T17:00:23.428Z</time>
      </trkpt>
      <trkpt lat="47.550061" lon="7.773283">
        <ele>276.625214</ele>
        <time>2021-11-07T17:00:30.676Z</time>
      </trkpt>
      <trkpt lat="47.550090" lon="7.773646">
        <ele>276.523687</ele>
        <time>2021-11-07T17:00:33.956Z</time>
      </trkpt>
      <trkpt lat="47.550320" lon="7.774602">
        <ele>276.248944</ele>
        <time>2021-11-07T17:00:42.831Z</time>
      </trkpt>
      <trkpt lat="47.550505" lon="7.775364">
        <ele>276.045591</ele>
        <time>2021-11-07T17:00:49.894Z</time>
      </trkpt>
      <trkpt lat="47.550598" lon="7.775828">
        <ele>275.924045</ele>
        <time>2021-11-07T17:00:54.212Z</time>
      </trkpt>
      <trkpt lat="47.550607" lon="7.775871">
        <ele>275.912740</ele>
        <time>2021-11-07T17:00:54.635Z</time>
      </trkpt>
      <trkpt lat="47.550782" lon="7.776690">
        <ele>275.697017</ele>
        <time>2021-11-07T17:01:02.611Z</time>
      </trkpt>
      <trkpt lat="47.550963" lon="7.777797">
        <ele>275.902361</ele>
        <time>2021-11-07T17:01:14.697Z</time>
      </trkpt>
      <trkpt lat="47.550982" lon="7.777915">
        <ele>275.935276</ele>
        <time>2021-11-07T17:01:16.230Z</time>
      </trkpt>
      <trkpt lat="47.551085" lon="7.779125">
        <ele>276.266182</ele>
        <time>2021-11-07T17:01:30.670Z</time>
      </trkpt>
      <trkpt lat="47.551208" lon="7.780694">
        <ele>276.568394</ele>
        <time>2021-11-07T17:01:48.063Z</time>
      </trkpt>
      <trkpt lat="47.551270" lon="7.781390">
        <ele>276.684705</ele>
        <time>2021-11-07T17:01:55.384Z</time>
      </trkpt>
      <trkpt lat="47.551198" lon="7.781475">
        <ele>276.707304</ele>
        <time>2021-11-07T17:01:57.328Z</time>
      </trkpt>
      <trkpt lat="47.551230" lon="7.781831">
        <ele>276.766806</ele>
        <time>2021-11-07T17:02:00.972Z</time>
      </trkpt>
      <trkpt lat="47.551302" lon="7.782671">
        <ele>276.949657</ele>
        <time>2021-11-07T17:02:09.565Z</time>
      </trkpt>
      <trkpt lat="47.551432" lon="7.784247">
        <ele>277.330147</ele>
        <time>2021-11-07T17:02:26.641Z</time>
      </trkpt>
      <trkpt lat="47.551439" lon="7.784323">
        <ele>277.348528</ele>
        <time>2021-11-07T17:02:27.522Z</time>
      </trkpt>
      <trkpt lat="47.551437" lon="7.784657">
        <ele>277.428573</ele>
        <time>2021-11-07T17:02:31.608Z</time>
      </trkpt>
      <trkpt lat="47.551410" lon="7.784675">
        <ele>277.439085</ele>
        <time>2021-11-07T17:02:32.070Z</time>
      </trkpt>
      <trkpt lat="47.551373" lon="7.784740">
        <ele>277.478302</ele>
        <time>2021-11-07T17:02:33.041Z</time>
      </trkpt>
      <trkpt lat="47.551366" lon="7.784786">
        <ele>277.513071</ele>
        <time>2021-11-07T17:02:33.562Z</time>
      </trkpt>
      <trkpt lat="47.551371" lon="7.784835">
        <ele>277.549610</ele>
        <time>2021-11-07T17:02:34.180Z</time>
      </trkpt>
      <trkpt lat="47.551420" lon="7.784918">
        <ele>277.630917</ele>
        <time>2021-11-07T17:02:35.485Z</time>
      </trkpt>
      <trkpt lat="47.551452" lon="7.784931">
        <ele>277.667166</ele>
        <time>2021-11-07T17:02:36.092Z</time>
      </trkpt>
      <trkpt lat="47.551479" lon="7.784929">
        <ele>277.696699</ele>
        <time>2021-11-07T17:02:36.590Z</time>
      </trkpt>
      <trkpt lat="47.551498" lon="7.785081">
        <ele>277.810679</ele>
        <time>2021-11-07T17:02:38.474Z</time>
      </trkpt>
      <trkpt lat="47.551672" lon="7.787603">
        <ele>279.666451</ele>
        <time>2021-11-07T17:03:12.181Z</time>
      </trkpt>
      <trkpt lat="47.551690" lon="7.787827">
        <ele>279.824318</ele>
        <time>2021-11-07T17:03:15.358Z</time>
      </trkpt>
      <trkpt lat="47.551694" lon="7.787879">
        <ele>279.860944</ele>
        <time>2021-11-07T17:03:16.025Z</time>
      </trkpt>
      <trkpt lat="47.551712" lon="7.788013">
        <ele>279.956559</ele>
        <time>2021-11-07T17:03:17.802Z</time>
      </trkpt>
      <trkpt lat="47.551858" lon="7.788906">
        <ele>280.599572</ele>
        <time>2021-11-07T17:03:29.691Z</time>
      </trkpt>
      <trkpt lat="47.552036" lon="7.789826">
        <ele>281.269336</ele>
        <time>2021-11-07T17:03:41.531Z</time>
      </trkpt>
      <trkpt lat="47.552135" lon="7.790302">
        <ele>281.494229</ele>
        <time>2021-11-07T17:03:47.409Z</time>
      </trkpt>
      <trkpt lat="47.552201" lon="7.791031">
        <ele>281.820386</ele>
        <time>2021-11-07T17:03:56.013Z</time>
      </trkpt>
      <trkpt lat="47.552182" lon="7.792040">
        <ele>282.267983</ele>
        <time>2021-11-07T17:04:08.466Z</time>
      </trkpt>
      <trkpt lat="47.552180" lon="7.792294">
        <ele>282.380622</ele>
        <time>2021-11-07T17:04:11.539Z</time>
      </trkpt>
      <trkpt lat="47.552184" lon="7.792540">
        <ele>282.496786</ele>
        <time>2021-11-07T17:04:13.959Z</time>
      </trkpt>
      <trkpt lat="47.552198" lon="7.792976">
        <ele>282.739617</ele>
        <time>2021-11-07T17:04:18.270Z</time>
      </trkpt>
      <trkpt lat="47.552216" lon="7.793160">
        <ele>282.843051</ele>
        <time>2021-11-07T17:04:20.276Z</time>
      </trkpt>
      <trkpt lat="47.552233" lon="7.793294">
        <ele>282.918904</ele>
        <time>2021-11-07T17:04:21.930Z</time>
      </trkpt>
      <trkpt lat="47.552292" lon="7.793607">
        <ele>283.099697</ele>
        <time>2021-11-07T17:04:25.038Z</time>
      </trkpt>
      <trkpt lat="47.552369" lon="7.793872">
        <ele>283.260204</ele>
        <time>2021-11-07T17:04:28.672Z</time>
      </trkpt>
      <trkpt lat="47.552384" lon="7.793915">
        <ele>283.287132</ele>
        <time>2021-11-07T17:04:29.068Z</time>
      </trkpt>
      <trkpt lat="47.552494" lon="7.794200">
        <ele>283.469779</ele>
        <time>2021-11-07T17:04:33.171Z</time>
      </trkpt>
      <trkpt lat="47.552532" lon="7.794285">
        <ele>283.526500</ele>
        <time>2021-11-07T17:04:34.523Z</time>
      </trkpt>
      <trkpt lat="47.552644" lon="7.794507">
        <ele>283.680694</ele>
        <time>2021-11-07T17:04:38.345Z</time>
      </trkpt>
      <trkpt lat="47.552763" lon="7.794750">
        <ele>283.847717</ele>
        <time>2021-11-07T17:04:42.772Z</time>
      </trkpt>
      <trkpt lat="47.552786" lon="7.794796">
        <ele>283.879565</ele>
        <time>2021-11-07T17:04:43.421Z</time>
      </trkpt>
      <trkpt lat="47.552826" lon="7.794894">
        <ele>283.943279</ele>
        <time>2021-11-07T17:04:45.206Z</time>
      </trkpt>
      <trkpt lat="47.552837" lon="7.794925">
        <ele>284.007761</ele>
        <time>2021-11-07T17:04:45.733Z</time>
      </trkpt>
      <trkpt lat="47.552861" lon="7.794992">
        <ele>284.154776</ele>
        <time>2021-11-07T17:04:46.843Z</time>
      </trkpt>
      <trkpt lat="47.552892" lon="7.795106">
        <ele>284.392989</ele>
        <time>2021-11-07T17:04:48.862Z</time>
      </trkpt>
      <trkpt lat="47.552909" lon="7.795229">
        <ele>284.636333</ele>
        <time>2021-11-07T17:04:50.785Z</time>
      </trkpt>
      <trkpt lat="47.552917" lon="7.795354">
        <ele>284.879693</ele>
        <time>2021-11-07T17:04:52.542Z</time>
      </trkpt>
      <trkpt lat="47.552930" lon="7.795600">
        <ele>285.357944</ele>
        <time>2021-11-07T17:04:56.084Z</time>
      </trkpt>
      <trkpt lat="47.552930" lon="7.795600">
        <ele>285.357944</ele>
        <time>2021-11-07T17:04:56.087Z</time>
      </trkpt>
      <trkpt lat="47.552930" lon="7.795600">
        <ele>285.357944</ele>
        <time>2021-11-07T17:04:56.132Z</time>
      </trkpt>
      <trkpt lat="47.552886" lon="7.795976">
        <ele>286.097574</ele>
        <time>2021-11-07T17:05:01.739Z</time>
      </trkpt>
      <trkpt lat="47.552817" lon="7.796239">
        <ele>286.644475</ele>
        <time>2021-11-07T17:05:06.530Z</time>
      </trkpt>
      <trkpt lat="47.552762" lon="7.796425">
        <ele>287.038061</ele>
        <time>2021-11-07T17:05:10.182Z</time>
      </trkpt>
      <trkpt lat="47.552493" lon="7.797048">
        <ele>288.471519</ele>
        <time>2021-11-07T17:05:24.818Z</time>
      </trkpt>
      <trkpt lat="47.552152" lon="7.797876">
        <ele>290.800205</ele>
        <time>2021-11-07T17:05:46.881Z</time>
      </trkpt>
      <trkpt lat="47.552084" lon="7.798083">
        <ele>291.407659</ele>
        <time>2021-11-07T17:05:52.420Z</time>
      </trkpt>
      <trkpt lat="47.551948" lon="7.798607">
        <ele>292.889000</ele>
        <time>2021-11-07T17:06:04.894Z</time>
      </trkpt>
      <trkpt lat="47.551805" lon="7.799326">
        <ele>294.866825</ele>
        <time>2021-11-07T17:06:19.243Z</time>
      </trkpt>
      <trkpt lat="47.551793" lon="7.799434">
        <ele>295.155633</ele>
        <time>2021-11-07T17:06:21.788Z</time>
      </trkpt>
      <trkpt lat="47.551754" lon="7.799766">
        <ele>296.044826</ele>
        <time>2021-11-07T17:06:27.842Z</time>
      </trkpt>
      <trkpt lat="47.551712" lon="7.800249">
        <ele>296.607272</ele>
        <time>2021-11-07T17:06:36.822Z</time>
      </trkpt>
      <trkpt lat="47.551704" lon="7.800451">
        <ele>296.816477</ele>
        <time>2021-11-07T17:06:40.204Z</time>
      </trkpt>
      <trkpt lat="47.551672" lon="7.801147">
        <ele>297.537734</ele>
        <time>2021-11-07T17:06:50.012Z</time>
      </trkpt>
      <trkpt lat="47.551669" lon="7.801438">
        <ele>297.838632</ele>
        <time>2021-11-07T17:06:53.560Z</time>
      </trkpt>
      <trkpt lat="47.551666" lon="7.801632">
        <ele>298.039260</ele>
        <time>2021-11-07T17:06:56.339Z</time>
      </trkpt>
      <trkpt lat="47.551669" lon="7.801853">
        <ele>298.267796</ele>
        <time>2021-11-07T17:06:58.851Z</time>
      </trkpt>
      <trkpt lat="47.551671" lon="7.802077">
        <ele>298.499408</ele>
        <time>2021-11-07T17:07:01.422Z</time>
      </trkpt>
      <trkpt lat="47.551679" lon="7.802228">
        <ele>298.656006</ele>
        <time>2021-11-07T17:07:02.897Z</time>
      </trkpt>
      <trkpt lat="47.551688" lon="7.802394">
        <ele>298.828185</ele>
        <time>2021-11-07T17:07:04.776Z</time>
      </trkpt>
      <trkpt lat="47.551700" lon="7.802648">
        <ele>298.996913</ele>
        <time>2021-11-07T17:07:07.492Z</time>
      </trkpt>
      <trkpt lat="47.551732" lon="7.803125">
        <ele>299.251545</ele>
        <time>2021-11-07T17:07:12.861Z</time>
      </trkpt>
      <trkpt lat="47.551744" lon="7.803277">
        <ele>299.332838</ele>
        <time>2021-11-07T17:07:14.542Z</time>
      </trkpt>
      <trkpt lat="47.551751" lon="7.803369">
        <ele>299.382018</ele>
        <time>2021-11-07T17:07:15.658Z</time>
      </trkpt>
      <trkpt lat="47.551692" lon="7.803510">
        <ele>299.470144</ele>
        <time>2021-11-07T17:07:18.380Z</time>
      </trkpt>
      <trkpt lat="47.551741" lon="7.804294">
        <ele>299.888387</ele>
        <time>2021-11-07T17:07:31.434Z</time>
      </trkpt>
      <trkpt lat="47.551744" lon="7.804473">
        <ele>299.983502</ele>
        <time>2021-11-07T17:07:34.006Z</time>
      </trkpt>
      <trkpt lat="47.551731" lon="7.804667">
        <ele>300.087061</ele>
        <time>2021-11-07T17:07:38.024Z</time>
      </trkpt>
      <trkpt lat="47.551709" lon="7.805000">
        <ele>300.264797</ele>
        <time>2021-11-07T17:07:42.565Z</time>
      </trkpt>
      <trkpt lat="47.551681" lon="7.805477">
        <ele>300.414353</ele>
        <time>2021-11-07T17:07:50.311Z</time>
      </trkpt>
      <trkpt lat="47.551671" lon="7.806117">
        <ele>300.581843</ele>
        <time>2021-11-07T17:08:00.400Z</time>
      </trkpt>
      <trkpt lat="47.551651" lon="7.806246">
        <ele>300.616473</ele>
        <time>2021-11-07T17:08:03.303Z</time>
      </trkpt>
      <trkpt lat="47.551895" lon="7.806278">
        <ele>300.711428</ele>
        <time>2021-11-07T17:08:06.829Z</time>
      </trkpt>
      <trkpt lat="47.552015" lon="7.806307">
        <ele>300.758560</ele>
        <time>2021-11-07T17:08:09.699Z</time>
      </trkpt>
      <trkpt lat="47.552068" lon="7.806445">
        <ele>300.800102</ele>
        <time>2021-11-07T17:08:11.156Z</time>
      </trkpt>
      <trkpt lat="47.552398" lon="7.808880">
        <ele>300.368073</ele>
        <time>2021-11-07T17:08:33.316Z</time>
      </trkpt>
      <trkpt lat="47.552566" lon="7.810386">
        <ele>299.750471</ele>
        <time>2021-11-07T17:08:46.411Z</time>
      </trkpt>
      <trkpt lat="47.552675" lon="7.812308">
        <ele>298.889903</ele>
        <time>2021-11-07T17:09:03.376Z</time>
      </trkpt>
      <trkpt lat="47.552711" lon="7.812955">
        <ele>298.606115</ele>
        <time>2021-11-07T17:09:09.021Z</time>
      </trkpt>
      <trkpt lat="47.552844" lon="7.816432">
        <ele>297.500070</ele>
        <time>2021-11-07T17:09:39.405Z</time>
      </trkpt>
      <trkpt lat="47.552948" lon="7.819358">
        <ele>297.829483</ele>
        <time>2021-11-07T17:10:10.635Z</time>
      </trkpt>
      <trkpt lat="47.552896" lon="7.820699">
        <ele>298.302427</ele>
        <time>2021-11-07T17:10:26.719Z</time>
      </trkpt>
      <trkpt lat="47.552567" lon="7.824508">
        <ele>300.203423</ele>
        <time>2021-11-07T17:11:13.106Z</time>
      </trkpt>
      <trkpt lat="47.552507" lon="7.826663">
        <ele>301.374362</ele>
        <time>2021-11-07T17:11:37.860Z</time>
      </trkpt>
      <trkpt lat="47.552491" lon="7.827227">
        <ele>301.755171</ele>
        <time>2021-11-07T17:11:44.844Z</time>
      </trkpt>
      <trkpt lat="47.552515" lon="7.828094">
        <ele>302.340538</ele>
        <time>2021-11-07T17:11:56.576Z</time>
      </trkpt>
      <trkpt lat="47.552477" lon="7.828294">
        <ele>302.480702</ele>
        <time>2021-11-07T17:11:59.203Z</time>
      </trkpt>
      <trkpt lat="47.552421" lon="7.828481">
        <ele>302.672421</ele>
        <time>2021-11-07T17:12:02.145Z</time>
      </trkpt>
      <trkpt lat="47.552404" lon="7.828582">
        <ele>302.830764</ele>
        <time>2021-11-07T17:12:03.835Z</time>
      </trkpt>
      <trkpt lat="47.552416" lon="7.828822">
        <ele>303.196843</ele>
        <time>2021-11-07T17:12:07.085Z</time>
      </trkpt>
      <trkpt lat="47.552554" lon="7.829266">
        <ele>303.940414</ele>
        <time>2021-11-07T17:12:14.471Z</time>
      </trkpt>
      <trkpt lat="47.552645" lon="7.830686">
        <ele>306.110170</ele>
        <time>2021-11-07T17:12:37.778Z</time>
      </trkpt>
      <trkpt lat="47.552690" lon="7.832598">
        <ele>309.806579</ele>
        <time>2021-11-07T17:13:13.255Z</time>
      </trkpt>
      <trkpt lat="47.552616" lon="7.832891">
        <ele>310.438965</ele>
        <time>2021-11-07T17:13:18.619Z</time>
      </trkpt>
      <trkpt lat="47.552556" lon="7.832977">
        <ele>310.688995</ele>
        <time>2021-11-07T17:13:21.350Z</time>
      </trkpt>
      <trkpt lat="47.552511" lon="7.833072">
        <ele>310.923607</ele>
        <time>2021-11-07T17:13:23.376Z</time>
      </trkpt>
      <trkpt lat="47.552467" lon="7.833198">
        <ele>311.210380</ele>
        <time>2021-11-07T17:13:25.777Z</time>
      </trkpt>
      <trkpt lat="47.552452" lon="7.833284">
        <ele>311.389934</ele>
        <time>2021-11-07T17:13:27.388Z</time>
      </trkpt>
      <trkpt lat="47.552696" lon="7.833789">
        <ele>312.492370</ele>
        <time>2021-11-07T17:13:38.420Z</time>
      </trkpt>
      <trkpt lat="47.552700" lon="7.833938">
        <ele>312.720417</ele>
        <time>2021-11-07T17:13:41.364Z</time>
      </trkpt>
      <trkpt lat="47.552714" lon="7.835010">
        <ele>314.360144</ele>
        <time>2021-11-07T17:13:59.841Z</time>
      </trkpt>
      <trkpt lat="47.552719" lon="7.836790">
        <ele>316.740905</ele>
        <time>2021-11-07T17:14:25.101Z</time>
      </trkpt>
      <trkpt lat="47.552697" lon="7.838068">
        <ele>318.021618</ele>
        <time>2021-11-07T17:14:42.767Z</time>
      </trkpt>
      <trkpt lat="47.552723" lon="7.838411">
        <ele>318.367395</ele>
        <time>2021-11-07T17:14:47.586Z</time>
      </trkpt>
      <trkpt lat="47.552736" lon="7.838578">
        <ele>318.535804</ele>
        <time>2021-11-07T17:14:49.893Z</time>
      </trkpt>
      <trkpt lat="47.552802" lon="7.839009">
        <ele>318.998183</ele>
        <time>2021-11-07T17:14:56.098Z</time>
      </trkpt>
      <trkpt lat="47.552939" lon="7.839526">
        <ele>319.605105</ele>
        <time>2021-11-07T17:15:03.892Z</time>
      </trkpt>
      <trkpt lat="47.553231" lon="7.841529">
        <ele>321.795048</ele>
        <time>2021-11-07T17:15:34.032Z</time>
      </trkpt>
      <trkpt lat="47.553216" lon="7.841849">
        <ele>322.043948</ele>
        <time>2021-11-07T17:15:38.556Z</time>
      </trkpt>
      <trkpt lat="47.553123" lon="7.842222">
        <ele>322.352495</ele>
        <time>2021-11-07T17:15:43.786Z</time>
      </trkpt>
      <trkpt lat="47.553133" lon="7.842431">
        <ele>322.515075</ele>
        <time>2021-11-07T17:15:46.915Z</time>
      </trkpt>
      <trkpt lat="47.552833" lon="7.842495">
        <ele>322.863545</ele>
        <time>2021-11-07T17:15:54.224Z</time>
      </trkpt>
      <trkpt lat="47.552380" lon="7.842592">
        <ele>323.389774</ele>
        <time>2021-11-07T17:16:05.272Z</time>
      </trkpt>
      <trkpt lat="47.551922" lon="7.842704">
        <ele>323.872130</ele>
        <time>2021-11-07T17:16:15.839Z</time>
      </trkpt>
      <trkpt lat="47.551668" lon="7.842770">
        <ele>324.084590</ele>
        <time>2021-11-07T17:16:21.797Z</time>
      </trkpt>
      <trkpt lat="47.551454" lon="7.842815">
        <ele>324.262668</ele>
        <time>2021-11-07T17:16:26.484Z</time>
      </trkpt>
      <trkpt lat="47.551344" lon="7.844621">
        <ele>325.299388</ele>
        <time>2021-11-07T17:16:48.996Z</time>
      </trkpt>
      <trkpt lat="47.551205" lon="7.846694">
        <ele>327.160494</ele>
        <time>2021-11-07T17:17:16.986Z</time>
      </trkpt>
      <trkpt lat="47.551188" lon="7.847105">
        <ele>327.528365</ele>
        <time>2021-11-07T17:17:22.868Z</time>
      </trkpt>
      <trkpt lat="47.551184" lon="7.847206">
        <ele>327.621148</ele>
        <time>2021-11-07T17:17:24.372Z</time>
      </trkpt>
      <trkpt lat="47.551196" lon="7.847517">
        <ele>327.947956</ele>
        <time>2021-11-07T17:17:28.917Z</time>
      </trkpt>
      <trkpt lat="47.551669" lon="7.848083">
        <ele>328.893030</ele>
        <time>2021-11-07T17:17:42.013Z</time>
      </trkpt>
      <trkpt lat="47.551242" lon="7.848702">
        <ele>329.821609</ele>
        <time>2021-11-07T17:17:54.596Z</time>
      </trkpt>
      <trkpt lat="47.550975" lon="7.849066">
        <ele>330.385594</ele>
        <time>2021-11-07T17:18:01.920Z</time>
      </trkpt>
      <trkpt lat="47.550810" lon="7.849346">
        <ele>330.679982</ele>
        <time>2021-11-07T17:18:08.313Z</time>
      </trkpt>
      <trkpt lat="47.550488" lon="7.850081">
        <ele>331.364814</ele>
        <time>2021-11-07T17:18:23.780Z</time>
      </trkpt>
      <trkpt lat="47.550333" lon="7.850434">
        <ele>331.693943</ele>
        <time>2021-11-07T17:18:31.110Z</time>
      </trkpt>
      <trkpt lat="47.550009" lon="7.851173">
        <ele>332.382663</ele>
        <time>2021-11-07T17:18:45.755Z</time>
      </trkpt>
      <trkpt lat="47.549652" lon="7.851969">
        <ele>332.482522</ele>
        <time>2021-11-07T17:18:59.648Z</time>
      </trkpt>
      <trkpt lat="47.549535" lon="7.852225">
        <ele>332.482134</ele>
        <time>2021-11-07T17:19:03.667Z</time>
      </trkpt>
      <trkpt lat="47.549473" lon="7.852364">
        <ele>332.481924</ele>
        <time>2021-11-07T17:19:05.834Z</time>
      </trkpt>
      <trkpt lat="47.549285" lon="7.852784">
        <ele>332.481291</ele>
        <time>2021-11-07T17:19:12.333Z</time>
      </trkpt>
      <trkpt lat="47.549708" lon="7.853279">
        <ele>332.480288</ele>
        <time>2021-11-07T17:19:22.716Z</time>
      </trkpt>
      <trkpt lat="47.550221" lon="7.853833">
        <ele>332.132623</ele>
        <time>2021-11-07T17:19:34.651Z</time>
      </trkpt>
      <trkpt lat="47.549883" lon="7.854434">
        <ele>331.823859</ele>
        <time>2021-11-07T17:19:41.300Z</time>
      </trkpt>
      <trkpt lat="47.549566" lon="7.855225">
        <ele>331.460770</ele>
        <time>2021-11-07T17:19:52.445Z</time>
      </trkpt>
      <trkpt lat="47.549362" lon="7.855774">
        <ele>331.348316</ele>
        <time>2021-11-07T17:20:00.366Z</time>
      </trkpt>
      <trkpt lat="47.548887" lon="7.857308">
        <ele>331.100147</ele>
        <time>2021-11-07T17:20:22.474Z</time>
      </trkpt>
      <trkpt lat="47.548743" lon="7.857692">
        <ele>331.039863</ele>
        <time>2021-11-07T17:20:28.446Z</time>
      </trkpt>
      <trkpt lat="47.548701" lon="7.857893">
        <ele>331.140215</ele>
        <time>2021-11-07T17:20:31.417Z</time>
      </trkpt>
      <trkpt lat="47.548686" lon="7.857973">
        <ele>331.179814</ele>
        <time>2021-11-07T17:20:32.541Z</time>
      </trkpt>
      <trkpt lat="47.548611" lon="7.858381">
        <ele>331.381488</ele>
        <time>2021-11-07T17:20:38.755Z</time>
      </trkpt>
      <trkpt lat="47.548334" lon="7.859801">
        <ele>332.086448</ele>
        <time>2021-11-07T17:21:01.792Z</time>
      </trkpt>
      <trkpt lat="47.548049" lon="7.860929">
        <ele>333.142573</ele>
        <time>2021-11-07T17:21:22.811Z</time>
      </trkpt>
      <trkpt lat="47.547930" lon="7.861711">
        <ele>334.046020</ele>
        <time>2021-11-07T17:21:37.574Z</time>
      </trkpt>
      <trkpt lat="47.547568" lon="7.863151">
        <ele>335.532994</ele>
        <time>2021-11-07T17:22:06.702Z</time>
      </trkpt>
      <trkpt lat="47.547320" lon="7.863864">
        <ele>335.963151</ele>
        <time>2021-11-07T17:22:20.642Z</time>
      </trkpt>
      <trkpt lat="47.546974" lon="7.864423">
        <ele>336.369901</ele>
        <time>2021-11-07T17:22:31.465Z</time>
      </trkpt>
      <trkpt lat="47.546885" lon="7.864500">
        <ele>336.451788</ele>
        <time>2021-11-07T17:22:34.550Z</time>
      </trkpt>
      <trkpt lat="47.546894" lon="7.864837">
        <ele>336.632661</ele>
        <time>2021-11-07T17:22:38.434Z</time>
      </trkpt>
      <trkpt lat="47.546889" lon="7.865225">
        <ele>336.631188</ele>
        <time>2021-11-07T17:22:43.859Z</time>
      </trkpt>
      <trkpt lat="47.546819" lon="7.865489">
        <ele>336.467613</ele>
        <time>2021-11-07T17:22:47.804Z</time>
      </trkpt>
      <trkpt lat="47.546510" lon="7.865766">
        <ele>336.159037</ele>
        <time>2021-11-07T17:22:54.438Z</time>
      </trkpt>
      <trkpt lat="47.546327" lon="7.865959">
        <ele>335.967111</ele>
        <time>2021-11-07T17:22:57.953Z</time>
      </trkpt>
      <trkpt lat="47.546096" lon="7.866147">
        <ele>335.741927</ele>
        <time>2021-11-07T17:23:02.509Z</time>
      </trkpt>
      <trkpt lat="47.545240" lon="7.866887">
        <ele>335.387301</ele>
        <time>2021-11-07T17:23:19.182Z</time>
      </trkpt>
      <trkpt lat="47.545160" lon="7.866985">
        <ele>335.440380</ele>
        <time>2021-11-07T17:23:21.138Z</time>
      </trkpt>
      <trkpt lat="47.545003" lon="7.867278">
        <ele>335.569499</ele>
        <time>2021-11-07T17:23:26.806Z</time>
      </trkpt>
      <trkpt lat="47.544568" lon="7.867693">
        <ele>335.834056</ele>
        <time>2021-11-07T17:23:39.597Z</time>
      </trkpt>
      <trkpt lat="47.544469" lon="7.867776">
        <ele>335.892221</ele>
        <time>2021-11-07T17:23:42.459Z</time>
      </trkpt>
      <trkpt lat="47.544410" lon="7.867825">
        <ele>335.926806</ele>
        <time>2021-11-07T17:23:44.548Z</time>
      </trkpt>
      <trkpt lat="47.544246" lon="7.867967">
        <ele>336.023936</ele>
        <time>2021-11-07T17:23:49.231Z</time>
      </trkpt>
      <trkpt lat="47.544214" lon="7.867988">
        <ele>336.041832</ele>
        <time>2021-11-07T17:23:50.079Z</time>
      </trkpt>
      <trkpt lat="47.543801" lon="7.868269">
        <ele>336.547511</ele>
        <time>2021-11-07T17:24:01.682Z</time>
      </trkpt>
      <trkpt lat="47.543657" lon="7.868359">
        <ele>336.771603</ele>
        <time>2021-11-07T17:24:06.032Z</time>
      </trkpt>
      <trkpt lat="47.543201" lon="7.868657">
        <ele>337.486213</ele>
        <time>2021-11-07T17:24:16.232Z</time>
      </trkpt>
      <trkpt lat="47.543105" lon="7.868711">
        <ele>337.633448</ele>
        <time>2021-11-07T17:24:18.816Z</time>
      </trkpt>
      <trkpt lat="47.543049" lon="7.868759">
        <ele>337.726213</ele>
        <time>2021-11-07T17:24:20.193Z</time>
      </trkpt>
      <trkpt lat="47.542722" lon="7.869201">
        <ele>338.360911</ele>
        <time>2021-11-07T17:24:30.039Z</time>
      </trkpt>
      <trkpt lat="47.542696" lon="7.869257">
        <ele>338.426694</ele>
        <time>2021-11-07T17:24:30.876Z</time>
      </trkpt>
      <trkpt lat="47.542657" lon="7.869354">
        <ele>338.535970</ele>
        <time>2021-11-07T17:24:32.330Z</time>
      </trkpt>
      <trkpt lat="47.542372" lon="7.869746">
        <ele>338.701649</ele>
        <time>2021-11-07T17:24:39.505Z</time>
      </trkpt>
      <trkpt lat="47.542329" lon="7.869820">
        <ele>338.701649</ele>
        <time>2021-11-07T17:24:40.730Z</time>
      </trkpt>
      <trkpt lat="47.542348" lon="7.869983">
        <ele>338.701649</ele>
        <time>2021-11-07T17:24:42.373Z</time>
      </trkpt>
      <trkpt lat="47.542317" lon="7.870012">
        <ele>338.701649</ele>
        <time>2021-11-07T17:24:43.036Z</time>
      </trkpt>
      <trkpt lat="47.542181" lon="7.870131">
        <ele>338.701649</ele>
        <time>2021-11-07T17:24:45.511Z</time>
      </trkpt>
      <trkpt lat="47.542118" lon="7.870135">
        <ele>338.701649</ele>
        <time>2021-11-07T17:24:46.565Z</time>
      </trkpt>
      <trkpt lat="47.542014" lon="7.870126">
        <ele>338.701649</ele>
        <time>2021-11-07T17:24:47.994Z</time>
      </trkpt>
      <trkpt lat="47.541910" lon="7.870106">
        <ele>338.701649</ele>
        <time>2021-11-07T17:24:49.538Z</time>
      </trkpt>
      <trkpt lat="47.541720" lon="7.870305">
        <ele>338.701649</ele>
        <time>2021-11-07T17:24:52.793Z</time>
      </trkpt>
    </trkseg>
  </trk>
</gpx>